<?xml version="1.0" encoding="UTF-8" standalone="no" ?>
<gpx xmlns="http://www.topografix.com/GPX/1/1" xmlns:xsi="http://www.w3.org/2001/XMLSchema-instance" xsi:schemaLocation="http://www.topografix.com/GPX/1/1 http://www.topografix.com/GPX/1/1/gpx.xsd" version="1.1" creator="VisuGPX - https://www.visugpx.com">
  <metadata>
    <name>forêt de plombières les dijon</name>
    <desc><![CDATA[durée excessive car je m%u2019arrêtais régulièrement pour faire des prises de son, et des photos]]></desc>
  </metadata>
  <trk>
    <name><![CDATA[ACTIVE LOG 006]]></name>
    <trkseg>
      <trkpt lat="47.32492" lon="5.04588">
        <ele>271.70971679688</ele>
        <time>2012-05-24T13:46:17Z</time>
      </trkpt>
      <trkpt lat="47.32451" lon="5.0459">
        <ele>274.11303710938</ele>
        <time>2012-05-24T13:46:31Z</time>
      </trkpt>
      <trkpt lat="47.32404" lon="5.04586">
        <ele>272.67114257812</ele>
        <time>2012-05-24T13:46:42Z</time>
      </trkpt>
      <trkpt lat="47.32384" lon="5.04579">
        <ele>270.26770019531</ele>
        <time>2012-05-24T13:46:46Z</time>
      </trkpt>
      <trkpt lat="47.32365" lon="5.04579">
        <ele>270.26770019531</ele>
        <time>2012-05-24T13:46:50Z</time>
      </trkpt>
      <trkpt lat="47.32294" lon="5.04562">
        <ele>274.59375</ele>
        <time>2012-05-24T13:47:05Z</time>
      </trkpt>
      <trkpt lat="47.32249" lon="5.04547">
        <ele>275.07446289062</ele>
        <time>2012-05-24T13:47:17Z</time>
      </trkpt>
      <trkpt lat="47.32245" lon="5.04547">
        <ele>275.07446289062</ele>
        <time>2012-05-24T13:47:18Z</time>
      </trkpt>
      <trkpt lat="47.32239" lon="5.04545">
        <ele>275.55505371094</ele>
        <time>2012-05-24T13:47:20Z</time>
      </trkpt>
      <trkpt lat="47.32204" lon="5.04539">
        <ele>278.91967773438</ele>
        <time>2012-05-24T13:47:31Z</time>
      </trkpt>
      <trkpt lat="47.32198" lon="5.04528">
        <ele>275.55505371094</ele>
        <time>2012-05-24T13:47:42Z</time>
      </trkpt>
      <trkpt lat="47.32196" lon="5.0453">
        <ele>275.07446289062</ele>
        <time>2012-05-24T13:47:43Z</time>
      </trkpt>
      <trkpt lat="47.32183" lon="5.04526">
        <ele>273.63244628906</ele>
        <time>2012-05-24T13:47:53Z</time>
      </trkpt>
      <trkpt lat="47.32166" lon="5.04528">
        <ele>274.11303710938</ele>
        <time>2012-05-24T13:48:02Z</time>
      </trkpt>
      <trkpt lat="47.32151" lon="5.0453">
        <ele>274.59375</ele>
        <time>2012-05-24T13:48:05Z</time>
      </trkpt>
      <trkpt lat="47.32129" lon="5.04534">
        <ele>275.07446289062</ele>
        <time>2012-05-24T13:48:11Z</time>
      </trkpt>
      <trkpt lat="47.32127" lon="5.04511">
        <ele>270.74841308594</ele>
        <time>2012-05-24T13:48:15Z</time>
      </trkpt>
      <trkpt lat="47.32129" lon="5.04498">
        <ele>269.30651855469</ele>
        <time>2012-05-24T13:48:17Z</time>
      </trkpt>
      <trkpt lat="47.32121" lon="5.04472">
        <ele>264.49987792969</ele>
        <time>2012-05-24T13:48:21Z</time>
      </trkpt>
      <trkpt lat="47.32118" lon="5.04466">
        <ele>263.05786132812</ele>
        <time>2012-05-24T13:48:22Z</time>
      </trkpt>
      <trkpt lat="47.32116" lon="5.04433">
        <ele>259.693359375</ele>
        <time>2012-05-24T13:48:28Z</time>
      </trkpt>
      <trkpt lat="47.32123" lon="5.04356">
        <ele>257.77075195312</ele>
        <time>2012-05-24T13:48:41Z</time>
      </trkpt>
      <trkpt lat="47.32129" lon="5.04294">
        <ele>255.36730957031</ele>
        <time>2012-05-24T13:48:52Z</time>
      </trkpt>
      <trkpt lat="47.32133" lon="5.04245">
        <ele>253.92541503906</ele>
        <time>2012-05-24T13:49:00Z</time>
      </trkpt>
      <trkpt lat="47.32136" lon="5.04227">
        <ele>252.96398925781</ele>
        <time>2012-05-24T13:49:03Z</time>
      </trkpt>
      <trkpt lat="47.32127" lon="5.04189">
        <ele>252.4833984375</ele>
        <time>2012-05-24T13:49:10Z</time>
      </trkpt>
      <trkpt lat="47.32123" lon="5.04184">
        <ele>252.00280761719</ele>
        <time>2012-05-24T13:49:11Z</time>
      </trkpt>
      <trkpt lat="47.32112" lon="5.0415">
        <ele>251.52209472656</ele>
        <time>2012-05-24T13:49:17Z</time>
      </trkpt>
      <trkpt lat="47.3211" lon="5.04144">
        <ele>251.52209472656</ele>
        <time>2012-05-24T13:49:18Z</time>
      </trkpt>
      <trkpt lat="47.32084" lon="5.04114">
        <ele>251.52209472656</ele>
        <time>2012-05-24T13:49:26Z</time>
      </trkpt>
      <trkpt lat="47.32065" lon="5.04092">
        <ele>251.52209472656</ele>
        <time>2012-05-24T13:49:31Z</time>
      </trkpt>
      <trkpt lat="47.32056" lon="5.04081">
        <ele>251.52209472656</ele>
        <time>2012-05-24T13:49:33Z</time>
      </trkpt>
      <trkpt lat="47.32045" lon="5.04064">
        <ele>251.04138183594</ele>
        <time>2012-05-24T13:49:36Z</time>
      </trkpt>
      <trkpt lat="47.32015" lon="5.04041">
        <ele>249.59948730469</ele>
        <time>2012-05-24T13:49:43Z</time>
      </trkpt>
      <trkpt lat="47.32002" lon="5.04028">
        <ele>249.11877441406</ele>
        <time>2012-05-24T13:49:46Z</time>
      </trkpt>
      <trkpt lat="47.31992" lon="5.04011">
        <ele>251.04138183594</ele>
        <time>2012-05-24T13:49:50Z</time>
      </trkpt>
      <trkpt lat="47.31992" lon="5.03994">
        <ele>252.00280761719</ele>
        <time>2012-05-24T13:49:55Z</time>
      </trkpt>
      <trkpt lat="47.31998" lon="5.03976">
        <ele>250.56079101562</ele>
        <time>2012-05-24T13:50:01Z</time>
      </trkpt>
      <trkpt lat="47.32007" lon="5.03936">
        <ele>247.6767578125</ele>
        <time>2012-05-24T13:50:13Z</time>
      </trkpt>
      <trkpt lat="47.32007" lon="5.03925">
        <ele>247.6767578125</ele>
        <time>2012-05-24T13:50:15Z</time>
      </trkpt>
      <trkpt lat="47.32009" lon="5.03903">
        <ele>246.71545410156</ele>
        <time>2012-05-24T13:50:19Z</time>
      </trkpt>
      <trkpt lat="47.32009" lon="5.03893">
        <ele>246.71545410156</ele>
        <time>2012-05-24T13:50:21Z</time>
      </trkpt>
      <trkpt lat="47.32028" lon="5.03869">
        <ele>248.63818359375</ele>
        <time>2012-05-24T13:50:28Z</time>
      </trkpt>
      <trkpt lat="47.32048" lon="5.03835">
        <ele>249.11877441406</ele>
        <time>2012-05-24T13:50:34Z</time>
      </trkpt>
      <trkpt lat="47.32056" lon="5.03815">
        <ele>249.59948730469</ele>
        <time>2012-05-24T13:50:37Z</time>
      </trkpt>
      <trkpt lat="47.32067" lon="5.03788">
        <ele>249.59948730469</ele>
        <time>2012-05-24T13:50:41Z</time>
      </trkpt>
      <trkpt lat="47.32071" lon="5.03781">
        <ele>249.59948730469</ele>
        <time>2012-05-24T13:50:42Z</time>
      </trkpt>
      <trkpt lat="47.3208" lon="5.03742">
        <ele>249.11877441406</ele>
        <time>2012-05-24T13:50:47Z</time>
      </trkpt>
      <trkpt lat="47.32086" lon="5.03717">
        <ele>249.11877441406</ele>
        <time>2012-05-24T13:50:51Z</time>
      </trkpt>
      <trkpt lat="47.3211" lon="5.037">
        <ele>250.56079101562</ele>
        <time>2012-05-24T13:50:57Z</time>
      </trkpt>
      <trkpt lat="47.32123" lon="5.03676">
        <ele>251.52209472656</ele>
        <time>2012-05-24T13:51:03Z</time>
      </trkpt>
      <trkpt lat="47.32125" lon="5.03646">
        <ele>252.96398925781</ele>
        <time>2012-05-24T13:51:08Z</time>
      </trkpt>
      <trkpt lat="47.32121" lon="5.03564">
        <ele>252.96398925781</ele>
        <time>2012-05-24T13:51:21Z</time>
      </trkpt>
      <trkpt lat="47.32121" lon="5.03524">
        <ele>252.00280761719</ele>
        <time>2012-05-24T13:51:27Z</time>
      </trkpt>
      <trkpt lat="47.32121" lon="5.03464">
        <ele>251.04138183594</ele>
        <time>2012-05-24T13:51:35Z</time>
      </trkpt>
      <trkpt lat="47.32123" lon="5.03427">
        <ele>250.56079101562</ele>
        <time>2012-05-24T13:51:40Z</time>
      </trkpt>
      <trkpt lat="47.32108" lon="5.03408">
        <ele>250.08020019531</ele>
        <time>2012-05-24T13:51:44Z</time>
      </trkpt>
      <trkpt lat="47.32078" lon="5.03388">
        <ele>249.59948730469</ele>
        <time>2012-05-24T13:51:50Z</time>
      </trkpt>
      <trkpt lat="47.32011" lon="5.03352">
        <ele>247.6767578125</ele>
        <time>2012-05-24T13:52:01Z</time>
      </trkpt>
      <trkpt lat="47.31904" lon="5.03305">
        <ele>246.71545410156</ele>
        <time>2012-05-24T13:52:18Z</time>
      </trkpt>
      <trkpt lat="47.31822" lon="5.0326">
        <ele>247.19604492188</ele>
        <time>2012-05-24T13:52:31Z</time>
      </trkpt>
      <trkpt lat="47.31807" lon="5.03242">
        <ele>246.23486328125</ele>
        <time>2012-05-24T13:52:34Z</time>
      </trkpt>
      <trkpt lat="47.31788" lon="5.03206">
        <ele>244.79284667969</ele>
        <time>2012-05-24T13:52:40Z</time>
      </trkpt>
      <trkpt lat="47.31781" lon="5.03195">
        <ele>244.31225585938</ele>
        <time>2012-05-24T13:52:43Z</time>
      </trkpt>
      <trkpt lat="47.31797" lon="5.03142">
        <ele>243.35083007812</ele>
        <time>2012-05-24T13:52:50Z</time>
      </trkpt>
      <trkpt lat="47.31827" lon="5.0306">
        <ele>243.35083007812</ele>
        <time>2012-05-24T13:53:01Z</time>
      </trkpt>
      <trkpt lat="47.31831" lon="5.03043">
        <ele>243.35083007812</ele>
        <time>2012-05-24T13:53:03Z</time>
      </trkpt>
      <trkpt lat="47.31867" lon="5.02906">
        <ele>242.3896484375</ele>
        <time>2012-05-24T13:53:20Z</time>
      </trkpt>
      <trkpt lat="47.31872" lon="5.0288">
        <ele>242.3896484375</ele>
        <time>2012-05-24T13:53:24Z</time>
      </trkpt>
      <trkpt lat="47.31882" lon="5.02846">
        <ele>242.87023925781</ele>
        <time>2012-05-24T13:53:29Z</time>
      </trkpt>
      <trkpt lat="47.31878" lon="5.02807">
        <ele>242.87023925781</ele>
        <time>2012-05-24T13:53:37Z</time>
      </trkpt>
      <trkpt lat="47.31876" lon="5.02796">
        <ele>242.87023925781</ele>
        <time>2012-05-24T13:53:40Z</time>
      </trkpt>
      <trkpt lat="47.31859" lon="5.02758">
        <ele>243.35083007812</ele>
        <time>2012-05-24T13:53:49Z</time>
      </trkpt>
      <trkpt lat="47.31863" lon="5.02715">
        <ele>242.87023925781</ele>
        <time>2012-05-24T13:53:56Z</time>
      </trkpt>
      <trkpt lat="47.31861" lon="5.02687">
        <ele>241.90893554688</ele>
        <time>2012-05-24T13:54:00Z</time>
      </trkpt>
      <trkpt lat="47.31861" lon="5.0268">
        <ele>241.42822265625</ele>
        <time>2012-05-24T13:54:01Z</time>
      </trkpt>
      <trkpt lat="47.31857" lon="5.02655">
        <ele>239.98620605469</ele>
        <time>2012-05-24T13:54:05Z</time>
      </trkpt>
      <trkpt lat="47.31854" lon="5.02627">
        <ele>238.06359863281</ele>
        <time>2012-05-24T13:54:10Z</time>
      </trkpt>
      <trkpt lat="47.31859" lon="5.02586">
        <ele>238.06359863281</ele>
        <time>2012-05-24T13:54:16Z</time>
      </trkpt>
      <trkpt lat="47.31861" lon="5.02564">
        <ele>237.58288574219</ele>
        <time>2012-05-24T13:54:19Z</time>
      </trkpt>
      <trkpt lat="47.31857" lon="5.02537">
        <ele>236.62170410156</ele>
        <time>2012-05-24T13:54:23Z</time>
      </trkpt>
      <trkpt lat="47.31854" lon="5.02498">
        <ele>234.69909667969</ele>
        <time>2012-05-24T13:54:29Z</time>
      </trkpt>
      <trkpt lat="47.31857" lon="5.02479">
        <ele>233.25708007812</ele>
        <time>2012-05-24T13:54:32Z</time>
      </trkpt>
      <trkpt lat="47.31869" lon="5.0241">
        <ele>237.10229492188</ele>
        <time>2012-05-24T13:54:43Z</time>
      </trkpt>
      <trkpt lat="47.31876" lon="5.02384">
        <ele>238.54431152344</ele>
        <time>2012-05-24T13:54:48Z</time>
      </trkpt>
      <trkpt lat="47.31887" lon="5.02328">
        <ele>239.98620605469</ele>
        <time>2012-05-24T13:54:59Z</time>
      </trkpt>
      <trkpt lat="47.31893" lon="5.02307">
        <ele>240.46704101562</ele>
        <time>2012-05-24T13:55:04Z</time>
      </trkpt>
      <trkpt lat="47.31893" lon="5.02258">
        <ele>240.94763183594</ele>
        <time>2012-05-24T13:55:10Z</time>
      </trkpt>
      <trkpt lat="47.31891" lon="5.0224">
        <ele>240.46704101562</ele>
        <time>2012-05-24T13:55:12Z</time>
      </trkpt>
      <trkpt lat="47.31891" lon="5.02225">
        <ele>239.98620605469</ele>
        <time>2012-05-24T13:55:14Z</time>
      </trkpt>
      <trkpt lat="47.31895" lon="5.02193">
        <ele>239.50549316406</ele>
        <time>2012-05-24T13:55:18Z</time>
      </trkpt>
      <trkpt lat="47.31895" lon="5.02187">
        <ele>239.98620605469</ele>
        <time>2012-05-24T13:55:19Z</time>
      </trkpt>
      <trkpt lat="47.3191" lon="5.02142">
        <ele>242.3896484375</ele>
        <time>2012-05-24T13:55:25Z</time>
      </trkpt>
      <trkpt lat="47.31915" lon="5.02107">
        <ele>243.83154296875</ele>
        <time>2012-05-24T13:55:30Z</time>
      </trkpt>
      <trkpt lat="47.31917" lon="5.02079">
        <ele>243.35083007812</ele>
        <time>2012-05-24T13:55:34Z</time>
      </trkpt>
      <trkpt lat="47.31921" lon="5.02052">
        <ele>243.83154296875</ele>
        <time>2012-05-24T13:55:38Z</time>
      </trkpt>
      <trkpt lat="47.31925" lon="5.02007">
        <ele>244.79284667969</ele>
        <time>2012-05-24T13:55:45Z</time>
      </trkpt>
      <trkpt lat="47.31927" lon="5.01983">
        <ele>244.79284667969</ele>
        <time>2012-05-24T13:55:49Z</time>
      </trkpt>
      <trkpt lat="47.31925" lon="5.01959">
        <ele>243.35083007812</ele>
        <time>2012-05-24T13:55:53Z</time>
      </trkpt>
      <trkpt lat="47.31917" lon="5.01931">
        <ele>241.42822265625</ele>
        <time>2012-05-24T13:55:58Z</time>
      </trkpt>
      <trkpt lat="47.3191" lon="5.01914">
        <ele>240.46704101562</ele>
        <time>2012-05-24T13:56:01Z</time>
      </trkpt>
      <trkpt lat="47.3188" lon="5.0185">
        <ele>235.66027832031</ele>
        <time>2012-05-24T13:56:13Z</time>
      </trkpt>
      <trkpt lat="47.31872" lon="5.01826">
        <ele>234.21838378906</ele>
        <time>2012-05-24T13:56:17Z</time>
      </trkpt>
      <trkpt lat="47.31863" lon="5.01801">
        <ele>232.77648925781</ele>
        <time>2012-05-24T13:56:22Z</time>
      </trkpt>
      <trkpt lat="47.31852" lon="5.01764">
        <ele>231.33435058594</ele>
        <time>2012-05-24T13:56:28Z</time>
      </trkpt>
      <trkpt lat="47.31827" lon="5.01717">
        <ele>235.1796875</ele>
        <time>2012-05-24T13:56:41Z</time>
      </trkpt>
      <trkpt lat="47.31824" lon="5.01702">
        <ele>235.1796875</ele>
        <time>2012-05-24T13:56:46Z</time>
      </trkpt>
      <trkpt lat="47.31829" lon="5.01667">
        <ele>239.98620605469</ele>
        <time>2012-05-24T13:56:56Z</time>
      </trkpt>
      <trkpt lat="47.31833" lon="5.01663">
        <ele>240.94763183594</ele>
        <time>2012-05-24T13:57:06Z</time>
      </trkpt>
      <trkpt lat="47.31833" lon="5.01661">
        <ele>241.90893554688</ele>
        <time>2012-05-24T14:06:23Z</time>
      </trkpt>
      <trkpt lat="47.3185" lon="5.01644">
        <ele>243.35083007812</ele>
        <time>2012-05-24T14:06:32Z</time>
      </trkpt>
      <trkpt lat="47.31848" lon="5.01616">
        <ele>243.35083007812</ele>
        <time>2012-05-24T14:06:37Z</time>
      </trkpt>
      <trkpt lat="47.31844" lon="5.01599">
        <ele>243.35083007812</ele>
        <time>2012-05-24T14:06:40Z</time>
      </trkpt>
      <trkpt lat="47.31831" lon="5.01526">
        <ele>242.87023925781</ele>
        <time>2012-05-24T14:06:51Z</time>
      </trkpt>
      <trkpt lat="47.31831" lon="5.01513">
        <ele>243.35083007812</ele>
        <time>2012-05-24T14:06:53Z</time>
      </trkpt>
      <trkpt lat="47.31831" lon="5.015">
        <ele>243.35083007812</ele>
        <time>2012-05-24T14:06:55Z</time>
      </trkpt>
      <trkpt lat="47.31829" lon="5.01462">
        <ele>243.35083007812</ele>
        <time>2012-05-24T14:07:01Z</time>
      </trkpt>
      <trkpt lat="47.31831" lon="5.01429">
        <ele>243.83154296875</ele>
        <time>2012-05-24T14:07:06Z</time>
      </trkpt>
      <trkpt lat="47.31833" lon="5.01416">
        <ele>243.83154296875</ele>
        <time>2012-05-24T14:07:08Z</time>
      </trkpt>
      <trkpt lat="47.31831" lon="5.01391">
        <ele>242.87023925781</ele>
        <time>2012-05-24T14:07:12Z</time>
      </trkpt>
      <trkpt lat="47.31829" lon="5.01376">
        <ele>242.3896484375</ele>
        <time>2012-05-24T14:07:15Z</time>
      </trkpt>
      <trkpt lat="47.31822" lon="5.01352">
        <ele>241.90893554688</ele>
        <time>2012-05-24T14:07:23Z</time>
      </trkpt>
      <trkpt lat="47.31822" lon="5.0135">
        <ele>242.3896484375</ele>
        <time>2012-05-24T14:07:29Z</time>
      </trkpt>
      <trkpt lat="47.31822" lon="5.01348">
        <ele>242.3896484375</ele>
        <time>2012-05-24T14:07:44Z</time>
      </trkpt>
      <trkpt lat="47.31824" lon="5.01341">
        <ele>241.42822265625</ele>
        <time>2012-05-24T14:16:13Z</time>
      </trkpt>
      <trkpt lat="47.31827" lon="5.01331">
        <ele>241.90893554688</ele>
        <time>2012-05-24T14:16:18Z</time>
      </trkpt>
      <trkpt lat="47.31831" lon="5.01316">
        <ele>243.35083007812</ele>
        <time>2012-05-24T14:16:22Z</time>
      </trkpt>
      <trkpt lat="47.31854" lon="5.01271">
        <ele>246.23486328125</ele>
        <time>2012-05-24T14:16:32Z</time>
      </trkpt>
      <trkpt lat="47.31876" lon="5.0124">
        <ele>247.6767578125</ele>
        <time>2012-05-24T14:16:39Z</time>
      </trkpt>
      <trkpt lat="47.31889" lon="5.01221">
        <ele>248.15759277344</ele>
        <time>2012-05-24T14:16:43Z</time>
      </trkpt>
      <trkpt lat="47.31893" lon="5.01217">
        <ele>248.63818359375</ele>
        <time>2012-05-24T14:16:44Z</time>
      </trkpt>
      <trkpt lat="47.31908" lon="5.01202">
        <ele>249.11877441406</ele>
        <time>2012-05-24T14:16:48Z</time>
      </trkpt>
      <trkpt lat="47.31932" lon="5.01187">
        <ele>250.56079101562</ele>
        <time>2012-05-24T14:16:54Z</time>
      </trkpt>
      <trkpt lat="47.31987" lon="5.01176">
        <ele>252.96398925781</ele>
        <time>2012-05-24T14:17:07Z</time>
      </trkpt>
      <trkpt lat="47.32018" lon="5.01174">
        <ele>253.92541503906</ele>
        <time>2012-05-24T14:17:14Z</time>
      </trkpt>
      <trkpt lat="47.32043" lon="5.01165">
        <ele>254.88659667969</ele>
        <time>2012-05-24T14:17:20Z</time>
      </trkpt>
      <trkpt lat="47.32058" lon="5.01155">
        <ele>254.88659667969</ele>
        <time>2012-05-24T14:17:24Z</time>
      </trkpt>
      <trkpt lat="47.32065" lon="5.01146">
        <ele>254.40600585938</ele>
        <time>2012-05-24T14:17:26Z</time>
      </trkpt>
      <trkpt lat="47.32078" lon="5.01133">
        <ele>254.40600585938</ele>
        <time>2012-05-24T14:17:30Z</time>
      </trkpt>
      <trkpt lat="47.32105" lon="5.01103">
        <ele>253.92541503906</ele>
        <time>2012-05-24T14:17:38Z</time>
      </trkpt>
      <trkpt lat="47.32131" lon="5.01069">
        <ele>252.4833984375</ele>
        <time>2012-05-24T14:17:48Z</time>
      </trkpt>
      <trkpt lat="47.32136" lon="5.01056">
        <ele>252.00280761719</ele>
        <time>2012-05-24T14:17:51Z</time>
      </trkpt>
      <trkpt lat="47.32151" lon="5.01017">
        <ele>252.00280761719</ele>
        <time>2012-05-24T14:17:57Z</time>
      </trkpt>
      <trkpt lat="47.32161" lon="5.01002">
        <ele>250.56079101562</ele>
        <time>2012-05-24T14:18:01Z</time>
      </trkpt>
      <trkpt lat="47.32166" lon="5.00998">
        <ele>250.56079101562</ele>
        <time>2012-05-24T14:18:03Z</time>
      </trkpt>
      <trkpt lat="47.32159" lon="5.00987">
        <ele>251.04138183594</ele>
        <time>2012-05-24T14:18:08Z</time>
      </trkpt>
      <trkpt lat="47.32153" lon="5.00996">
        <ele>250.56079101562</ele>
        <time>2012-05-24T14:18:16Z</time>
      </trkpt>
      <trkpt lat="47.32151" lon="5.00994">
        <ele>250.08020019531</ele>
        <time>2012-05-24T14:18:28Z</time>
      </trkpt>
      <trkpt lat="47.32153" lon="5.00994">
        <ele>249.59948730469</ele>
        <time>2012-05-24T14:19:27Z</time>
      </trkpt>
      <trkpt lat="47.32153" lon="5.00996">
        <ele>249.11877441406</ele>
        <time>2012-05-24T14:20:14Z</time>
      </trkpt>
      <trkpt lat="47.32153" lon="5.00996">
        <ele>249.11877441406</ele>
        <time>2012-05-24T14:20:52Z</time>
      </trkpt>
      <trkpt lat="47.32153" lon="5.00996">
        <ele>248.63818359375</ele>
        <time>2012-05-24T14:21:10Z</time>
      </trkpt>
      <trkpt lat="47.32155" lon="5.00992">
        <ele>248.15759277344</ele>
        <time>2012-05-24T14:21:13Z</time>
      </trkpt>
      <trkpt lat="47.32163" lon="5.00968">
        <ele>248.63818359375</ele>
        <time>2012-05-24T14:21:19Z</time>
      </trkpt>
      <trkpt lat="47.32172" lon="5.00934">
        <ele>248.63818359375</ele>
        <time>2012-05-24T14:21:25Z</time>
      </trkpt>
      <trkpt lat="47.32174" lon="5.00927">
        <ele>248.63818359375</ele>
        <time>2012-05-24T14:21:26Z</time>
      </trkpt>
      <trkpt lat="47.32183" lon="5.00904">
        <ele>248.63818359375</ele>
        <time>2012-05-24T14:21:30Z</time>
      </trkpt>
      <trkpt lat="47.32191" lon="5.00886">
        <ele>248.63818359375</ele>
        <time>2012-05-24T14:21:33Z</time>
      </trkpt>
      <trkpt lat="47.32206" lon="5.00867">
        <ele>247.19604492188</ele>
        <time>2012-05-24T14:21:38Z</time>
      </trkpt>
      <trkpt lat="47.32251" lon="5.00813">
        <ele>248.63818359375</ele>
        <time>2012-05-24T14:21:51Z</time>
      </trkpt>
      <trkpt lat="47.32256" lon="5.00809">
        <ele>248.15759277344</ele>
        <time>2012-05-24T14:21:52Z</time>
      </trkpt>
      <trkpt lat="47.32273" lon="5.00798">
        <ele>248.15759277344</ele>
        <time>2012-05-24T14:21:57Z</time>
      </trkpt>
      <trkpt lat="47.32284" lon="5.00794">
        <ele>247.6767578125</ele>
        <time>2012-05-24T14:22:00Z</time>
      </trkpt>
      <trkpt lat="47.32303" lon="5.00786">
        <ele>247.6767578125</ele>
        <time>2012-05-24T14:22:05Z</time>
      </trkpt>
      <trkpt lat="47.32333" lon="5.00781">
        <ele>248.15759277344</ele>
        <time>2012-05-24T14:22:12Z</time>
      </trkpt>
      <trkpt lat="47.32354" lon="5.00786">
        <ele>248.63818359375</ele>
        <time>2012-05-24T14:22:17Z</time>
      </trkpt>
      <trkpt lat="47.32363" lon="5.00788">
        <ele>248.15759277344</ele>
        <time>2012-05-24T14:22:19Z</time>
      </trkpt>
      <trkpt lat="47.32399" lon="5.00779">
        <ele>247.6767578125</ele>
        <time>2012-05-24T14:22:27Z</time>
      </trkpt>
      <trkpt lat="47.32423" lon="5.00768">
        <ele>249.59948730469</ele>
        <time>2012-05-24T14:22:34Z</time>
      </trkpt>
      <trkpt lat="47.32423" lon="5.00758">
        <ele>249.59948730469</ele>
        <time>2012-05-24T14:22:38Z</time>
      </trkpt>
      <trkpt lat="47.32425" lon="5.00747">
        <ele>250.08020019531</ele>
        <time>2012-05-24T14:22:43Z</time>
      </trkpt>
      <trkpt lat="47.32432" lon="5.00758">
        <ele>250.56079101562</ele>
        <time>2012-05-24T14:22:52Z</time>
      </trkpt>
      <trkpt lat="47.32425" lon="5.00749">
        <ele>250.08020019531</ele>
        <time>2012-05-24T14:22:57Z</time>
      </trkpt>
      <trkpt lat="47.32412" lon="5.00715">
        <ele>250.08020019531</ele>
        <time>2012-05-24T14:23:11Z</time>
      </trkpt>
      <trkpt lat="47.3241" lon="5.00706">
        <ele>250.08020019531</ele>
        <time>2012-05-24T14:23:15Z</time>
      </trkpt>
      <trkpt lat="47.32408" lon="5.0071">
        <ele>250.08020019531</ele>
        <time>2012-05-24T14:23:22Z</time>
      </trkpt>
      <trkpt lat="47.3241" lon="5.00708">
        <ele>249.59948730469</ele>
        <time>2012-05-24T14:31:13Z</time>
      </trkpt>
      <trkpt lat="47.3241" lon="5.00706">
        <ele>250.08020019531</ele>
        <time>2012-05-24T14:31:24Z</time>
      </trkpt>
      <trkpt lat="47.32408" lon="5.00702">
        <ele>249.59948730469</ele>
        <time>2012-05-24T14:31:26Z</time>
      </trkpt>
      <trkpt lat="47.32399" lon="5.0067">
        <ele>249.59948730469</ele>
        <time>2012-05-24T14:31:38Z</time>
      </trkpt>
      <trkpt lat="47.32391" lon="5.00642">
        <ele>249.59948730469</ele>
        <time>2012-05-24T14:31:48Z</time>
      </trkpt>
      <trkpt lat="47.32387" lon="5.00629">
        <ele>249.59948730469</ele>
        <time>2012-05-24T14:31:51Z</time>
      </trkpt>
      <trkpt lat="47.32382" lon="5.00616">
        <ele>249.11877441406</ele>
        <time>2012-05-24T14:31:54Z</time>
      </trkpt>
      <trkpt lat="47.32344" lon="5.00588">
        <ele>251.04138183594</ele>
        <time>2012-05-24T14:32:05Z</time>
      </trkpt>
      <trkpt lat="47.32344" lon="5.00539">
        <ele>252.4833984375</ele>
        <time>2012-05-24T14:32:15Z</time>
      </trkpt>
      <trkpt lat="47.32357" lon="5.0047">
        <ele>253.92541503906</ele>
        <time>2012-05-24T14:32:28Z</time>
      </trkpt>
      <trkpt lat="47.32372" lon="5.00417">
        <ele>254.40600585938</ele>
        <time>2012-05-24T14:32:39Z</time>
      </trkpt>
      <trkpt lat="47.32374" lon="5.00389">
        <ele>254.40600585938</ele>
        <time>2012-05-24T14:32:45Z</time>
      </trkpt>
      <trkpt lat="47.32408" lon="5.00341">
        <ele>254.88659667969</ele>
        <time>2012-05-24T14:32:58Z</time>
      </trkpt>
      <trkpt lat="47.32419" lon="5.00324">
        <ele>255.36730957031</ele>
        <time>2012-05-24T14:33:02Z</time>
      </trkpt>
      <trkpt lat="47.32442" lon="5.00296">
        <ele>256.80932617188</ele>
        <time>2012-05-24T14:33:09Z</time>
      </trkpt>
      <trkpt lat="47.32445" lon="5.00292">
        <ele>256.80932617188</ele>
        <time>2012-05-24T14:33:10Z</time>
      </trkpt>
      <trkpt lat="47.32475" lon="5.00251">
        <ele>257.2900390625</ele>
        <time>2012-05-24T14:33:20Z</time>
      </trkpt>
      <trkpt lat="47.32479" lon="5.00247">
        <ele>256.80932617188</ele>
        <time>2012-05-24T14:33:21Z</time>
      </trkpt>
      <trkpt lat="47.3252" lon="5.00196">
        <ele>257.2900390625</ele>
        <time>2012-05-24T14:33:32Z</time>
      </trkpt>
      <trkpt lat="47.32535" lon="5.00172">
        <ele>257.77075195312</ele>
        <time>2012-05-24T14:33:37Z</time>
      </trkpt>
      <trkpt lat="47.3255" lon="5.00142">
        <ele>258.73193359375</ele>
        <time>2012-05-24T14:33:42Z</time>
      </trkpt>
      <trkpt lat="47.32565" lon="5.00108">
        <ele>256.80932617188</ele>
        <time>2012-05-24T14:33:48Z</time>
      </trkpt>
      <trkpt lat="47.32586" lon="5.00009">
        <ele>253.92541503906</ele>
        <time>2012-05-24T14:34:02Z</time>
      </trkpt>
      <trkpt lat="47.32582" lon="4.99889">
        <ele>251.04138183594</ele>
        <time>2012-05-24T14:34:17Z</time>
      </trkpt>
      <trkpt lat="47.32578" lon="4.9982">
        <ele>249.59948730469</ele>
        <time>2012-05-24T14:34:25Z</time>
      </trkpt>
      <trkpt lat="47.32578" lon="4.99749">
        <ele>252.00280761719</ele>
        <time>2012-05-24T14:34:34Z</time>
      </trkpt>
      <trkpt lat="47.3258" lon="4.99734">
        <ele>252.4833984375</ele>
        <time>2012-05-24T14:34:36Z</time>
      </trkpt>
      <trkpt lat="47.32586" lon="4.99702">
        <ele>252.96398925781</ele>
        <time>2012-05-24T14:34:40Z</time>
      </trkpt>
      <trkpt lat="47.32603" lon="4.99644">
        <ele>252.4833984375</ele>
        <time>2012-05-24T14:34:47Z</time>
      </trkpt>
      <trkpt lat="47.32612" lon="4.99623">
        <ele>252.00280761719</ele>
        <time>2012-05-24T14:34:50Z</time>
      </trkpt>
      <trkpt lat="47.32623" lon="4.99593">
        <ele>250.56079101562</ele>
        <time>2012-05-24T14:34:54Z</time>
      </trkpt>
      <trkpt lat="47.32631" lon="4.99565">
        <ele>250.56079101562</ele>
        <time>2012-05-24T14:34:58Z</time>
      </trkpt>
      <trkpt lat="47.32657" lon="4.9949">
        <ele>250.56079101562</ele>
        <time>2012-05-24T14:35:10Z</time>
      </trkpt>
      <trkpt lat="47.32668" lon="4.99434">
        <ele>251.04138183594</ele>
        <time>2012-05-24T14:35:18Z</time>
      </trkpt>
      <trkpt lat="47.32681" lon="4.99335">
        <ele>254.40600585938</ele>
        <time>2012-05-24T14:35:33Z</time>
      </trkpt>
      <trkpt lat="47.32696" lon="4.99238">
        <ele>256.80932617188</ele>
        <time>2012-05-24T14:35:48Z</time>
      </trkpt>
      <trkpt lat="47.32696" lon="4.99232">
        <ele>257.2900390625</ele>
        <time>2012-05-24T14:35:49Z</time>
      </trkpt>
      <trkpt lat="47.32708" lon="4.99226">
        <ele>256.80932617188</ele>
        <time>2012-05-24T14:35:55Z</time>
      </trkpt>
      <trkpt lat="47.32715" lon="4.99208">
        <ele>254.40600585938</ele>
        <time>2012-05-24T14:36:01Z</time>
      </trkpt>
      <trkpt lat="47.32719" lon="4.99178">
        <ele>253.44470214844</ele>
        <time>2012-05-24T14:36:09Z</time>
      </trkpt>
      <trkpt lat="47.3273" lon="4.99151">
        <ele>252.00280761719</ele>
        <time>2012-05-24T14:36:16Z</time>
      </trkpt>
      <trkpt lat="47.32745" lon="4.99086">
        <ele>252.00280761719</ele>
        <time>2012-05-24T14:36:29Z</time>
      </trkpt>
      <trkpt lat="47.32766" lon="4.9899">
        <ele>251.52209472656</ele>
        <time>2012-05-24T14:36:46Z</time>
      </trkpt>
      <trkpt lat="47.32781" lon="4.98899">
        <ele>251.04138183594</ele>
        <time>2012-05-24T14:37:00Z</time>
      </trkpt>
      <trkpt lat="47.32826" lon="4.98852">
        <ele>250.56079101562</ele>
        <time>2012-05-24T14:37:15Z</time>
      </trkpt>
      <trkpt lat="47.32841" lon="4.98844">
        <ele>250.56079101562</ele>
        <time>2012-05-24T14:37:19Z</time>
      </trkpt>
      <trkpt lat="47.32852" lon="4.98835">
        <ele>250.08020019531</ele>
        <time>2012-05-24T14:37:22Z</time>
      </trkpt>
      <trkpt lat="47.32865" lon="4.9882">
        <ele>250.08020019531</ele>
        <time>2012-05-24T14:37:26Z</time>
      </trkpt>
      <trkpt lat="47.32872" lon="4.98811">
        <ele>250.08020019531</ele>
        <time>2012-05-24T14:37:28Z</time>
      </trkpt>
      <trkpt lat="47.32899" lon="4.98784">
        <ele>250.56079101562</ele>
        <time>2012-05-24T14:37:36Z</time>
      </trkpt>
      <trkpt lat="47.32906" lon="4.98775">
        <ele>251.04138183594</ele>
        <time>2012-05-24T14:37:38Z</time>
      </trkpt>
      <trkpt lat="47.32936" lon="4.98741">
        <ele>251.04138183594</ele>
        <time>2012-05-24T14:37:50Z</time>
      </trkpt>
      <trkpt lat="47.3294" lon="4.9873">
        <ele>251.04138183594</ele>
        <time>2012-05-24T14:37:53Z</time>
      </trkpt>
      <trkpt lat="47.32949" lon="4.98717">
        <ele>251.04138183594</ele>
        <time>2012-05-24T14:37:58Z</time>
      </trkpt>
      <trkpt lat="47.32957" lon="4.98698">
        <ele>250.56079101562</ele>
        <time>2012-05-24T14:38:04Z</time>
      </trkpt>
      <trkpt lat="47.3296" lon="4.98689">
        <ele>249.59948730469</ele>
        <time>2012-05-24T14:38:06Z</time>
      </trkpt>
      <trkpt lat="47.32975" lon="4.9864">
        <ele>248.15759277344</ele>
        <time>2012-05-24T14:38:13Z</time>
      </trkpt>
      <trkpt lat="47.32983" lon="4.98614">
        <ele>248.15759277344</ele>
        <time>2012-05-24T14:38:17Z</time>
      </trkpt>
      <trkpt lat="47.32994" lon="4.9858">
        <ele>248.63818359375</ele>
        <time>2012-05-24T14:38:22Z</time>
      </trkpt>
      <trkpt lat="47.33002" lon="4.98539">
        <ele>248.63818359375</ele>
        <time>2012-05-24T14:38:28Z</time>
      </trkpt>
      <trkpt lat="47.33013" lon="4.9852">
        <ele>249.59948730469</ele>
        <time>2012-05-24T14:38:32Z</time>
      </trkpt>
      <trkpt lat="47.33054" lon="4.98462">
        <ele>248.63818359375</ele>
        <time>2012-05-24T14:38:45Z</time>
      </trkpt>
      <trkpt lat="47.33065" lon="4.98436">
        <ele>248.63818359375</ele>
        <time>2012-05-24T14:38:50Z</time>
      </trkpt>
      <trkpt lat="47.33065" lon="4.98432">
        <ele>248.15759277344</ele>
        <time>2012-05-24T14:38:51Z</time>
      </trkpt>
      <trkpt lat="47.33088" lon="4.98372">
        <ele>249.59948730469</ele>
        <time>2012-05-24T14:39:04Z</time>
      </trkpt>
      <trkpt lat="47.33097" lon="4.98365">
        <ele>249.59948730469</ele>
        <time>2012-05-24T14:39:06Z</time>
      </trkpt>
      <trkpt lat="47.33112" lon="4.98346">
        <ele>249.59948730469</ele>
        <time>2012-05-24T14:39:11Z</time>
      </trkpt>
      <trkpt lat="47.33118" lon="4.98333">
        <ele>249.59948730469</ele>
        <time>2012-05-24T14:39:14Z</time>
      </trkpt>
      <trkpt lat="47.33131" lon="4.98314">
        <ele>249.59948730469</ele>
        <time>2012-05-24T14:39:18Z</time>
      </trkpt>
      <trkpt lat="47.33146" lon="4.9829">
        <ele>250.08020019531</ele>
        <time>2012-05-24T14:39:23Z</time>
      </trkpt>
      <trkpt lat="47.33168" lon="4.98273">
        <ele>249.59948730469</ele>
        <time>2012-05-24T14:39:29Z</time>
      </trkpt>
      <trkpt lat="47.33181" lon="4.98264">
        <ele>250.08020019531</ele>
        <time>2012-05-24T14:39:32Z</time>
      </trkpt>
      <trkpt lat="47.33193" lon="4.98258">
        <ele>250.08020019531</ele>
        <time>2012-05-24T14:39:35Z</time>
      </trkpt>
      <trkpt lat="47.33208" lon="4.98245">
        <ele>250.56079101562</ele>
        <time>2012-05-24T14:39:39Z</time>
      </trkpt>
      <trkpt lat="47.33211" lon="4.98241">
        <ele>250.56079101562</ele>
        <time>2012-05-24T14:39:40Z</time>
      </trkpt>
      <trkpt lat="47.33221" lon="4.98228">
        <ele>250.08020019531</ele>
        <time>2012-05-24T14:39:43Z</time>
      </trkpt>
      <trkpt lat="47.33234" lon="4.98213">
        <ele>249.59948730469</ele>
        <time>2012-05-24T14:39:47Z</time>
      </trkpt>
      <trkpt lat="47.33279" lon="4.98166">
        <ele>250.08020019531</ele>
        <time>2012-05-24T14:40:01Z</time>
      </trkpt>
      <trkpt lat="47.33286" lon="4.98161">
        <ele>250.08020019531</ele>
        <time>2012-05-24T14:40:03Z</time>
      </trkpt>
      <trkpt lat="47.33303" lon="4.98166">
        <ele>250.56079101562</ele>
        <time>2012-05-24T14:40:07Z</time>
      </trkpt>
      <trkpt lat="47.33309" lon="4.98172">
        <ele>251.04138183594</ele>
        <time>2012-05-24T14:40:09Z</time>
      </trkpt>
      <trkpt lat="47.33324" lon="4.98189">
        <ele>251.04138183594</ele>
        <time>2012-05-24T14:40:13Z</time>
      </trkpt>
      <trkpt lat="47.33359" lon="4.98215">
        <ele>250.56079101562</ele>
        <time>2012-05-24T14:40:24Z</time>
      </trkpt>
      <trkpt lat="47.33374" lon="4.98209">
        <ele>250.56079101562</ele>
        <time>2012-05-24T14:40:30Z</time>
      </trkpt>
      <trkpt lat="47.33395" lon="4.98189">
        <ele>250.08020019531</ele>
        <time>2012-05-24T14:40:40Z</time>
      </trkpt>
      <trkpt lat="47.33397" lon="4.98187">
        <ele>250.08020019531</ele>
        <time>2012-05-24T14:40:50Z</time>
      </trkpt>
      <trkpt lat="47.33402" lon="4.98185">
        <ele>249.59948730469</ele>
        <time>2012-05-24T14:41:22Z</time>
      </trkpt>
      <trkpt lat="47.33408" lon="4.98163">
        <ele>249.11877441406</ele>
        <time>2012-05-24T14:41:27Z</time>
      </trkpt>
      <trkpt lat="47.33449" lon="4.98131">
        <ele>251.04138183594</ele>
        <time>2012-05-24T14:41:38Z</time>
      </trkpt>
      <trkpt lat="47.33462" lon="4.98114">
        <ele>251.52209472656</ele>
        <time>2012-05-24T14:41:42Z</time>
      </trkpt>
      <trkpt lat="47.33517" lon="4.98052">
        <ele>251.52209472656</ele>
        <time>2012-05-24T14:41:58Z</time>
      </trkpt>
      <trkpt lat="47.33537" lon="4.98026">
        <ele>252.00280761719</ele>
        <time>2012-05-24T14:42:04Z</time>
      </trkpt>
      <trkpt lat="47.33584" lon="4.97972">
        <ele>252.4833984375</ele>
        <time>2012-05-24T14:42:17Z</time>
      </trkpt>
      <trkpt lat="47.33646" lon="4.97891">
        <ele>252.4833984375</ele>
        <time>2012-05-24T14:42:34Z</time>
      </trkpt>
      <trkpt lat="47.33659" lon="4.97878">
        <ele>252.4833984375</ele>
        <time>2012-05-24T14:42:37Z</time>
      </trkpt>
      <trkpt lat="47.33672" lon="4.97857">
        <ele>252.4833984375</ele>
        <time>2012-05-24T14:42:41Z</time>
      </trkpt>
      <trkpt lat="47.33715" lon="4.97794">
        <ele>252.4833984375</ele>
        <time>2012-05-24T14:42:54Z</time>
      </trkpt>
      <trkpt lat="47.33721" lon="4.97786">
        <ele>252.4833984375</ele>
        <time>2012-05-24T14:42:56Z</time>
      </trkpt>
      <trkpt lat="47.3373" lon="4.97771">
        <ele>252.96398925781</ele>
        <time>2012-05-24T14:42:59Z</time>
      </trkpt>
      <trkpt lat="47.33743" lon="4.97754">
        <ele>252.96398925781</ele>
        <time>2012-05-24T14:43:03Z</time>
      </trkpt>
      <trkpt lat="47.33749" lon="4.97743">
        <ele>252.96398925781</ele>
        <time>2012-05-24T14:43:05Z</time>
      </trkpt>
      <trkpt lat="47.33811" lon="4.97651">
        <ele>253.92541503906</ele>
        <time>2012-05-24T14:43:24Z</time>
      </trkpt>
      <trkpt lat="47.33818" lon="4.97642">
        <ele>253.92541503906</ele>
        <time>2012-05-24T14:43:26Z</time>
      </trkpt>
      <trkpt lat="47.33869" lon="4.97571">
        <ele>253.92541503906</ele>
        <time>2012-05-24T14:43:44Z</time>
      </trkpt>
      <trkpt lat="47.33891" lon="4.97548">
        <ele>255.36730957031</ele>
        <time>2012-05-24T14:43:53Z</time>
      </trkpt>
      <trkpt lat="47.33908" lon="4.97535">
        <ele>255.84802246094</ele>
        <time>2012-05-24T14:44:02Z</time>
      </trkpt>
      <trkpt lat="47.33927" lon="4.97475">
        <ele>257.77075195312</ele>
        <time>2012-05-24T14:44:17Z</time>
      </trkpt>
      <trkpt lat="47.33949" lon="4.97402">
        <ele>261.61596679688</ele>
        <time>2012-05-24T14:44:34Z</time>
      </trkpt>
      <trkpt lat="47.33972" lon="4.97337">
        <ele>263.53857421875</ele>
        <time>2012-05-24T14:44:47Z</time>
      </trkpt>
      <trkpt lat="47.33989" lon="4.97288">
        <ele>264.98059082031</ele>
        <time>2012-05-24T14:44:57Z</time>
      </trkpt>
      <trkpt lat="47.34011" lon="4.97228">
        <ele>267.38391113281</ele>
        <time>2012-05-24T14:45:10Z</time>
      </trkpt>
      <trkpt lat="47.34022" lon="4.972">
        <ele>268.34509277344</ele>
        <time>2012-05-24T14:45:18Z</time>
      </trkpt>
      <trkpt lat="47.34011" lon="4.97181">
        <ele>266.90319824219</ele>
        <time>2012-05-24T14:45:26Z</time>
      </trkpt>
      <trkpt lat="47.34017" lon="4.97144">
        <ele>265.46130371094</ele>
        <time>2012-05-24T14:45:33Z</time>
      </trkpt>
      <trkpt lat="47.34022" lon="4.9714">
        <ele>265.94189453125</ele>
        <time>2012-05-24T14:45:36Z</time>
      </trkpt>
      <trkpt lat="47.34024" lon="4.9714">
        <ele>266.42248535156</ele>
        <time>2012-05-24T14:45:38Z</time>
      </trkpt>
      <trkpt lat="47.34032" lon="4.97149">
        <ele>266.90319824219</ele>
        <time>2012-05-24T14:45:44Z</time>
      </trkpt>
      <trkpt lat="47.3403" lon="4.97149">
        <ele>267.38391113281</ele>
        <time>2012-05-24T14:45:57Z</time>
      </trkpt>
      <trkpt lat="47.34015" lon="4.97157">
        <ele>266.90319824219</ele>
        <time>2012-05-24T14:46:05Z</time>
      </trkpt>
      <trkpt lat="47.34011" lon="4.97164">
        <ele>264.98059082031</ele>
        <time>2012-05-24T14:46:08Z</time>
      </trkpt>
      <trkpt lat="47.34015" lon="4.97159">
        <ele>263.53857421875</ele>
        <time>2012-05-24T14:46:14Z</time>
      </trkpt>
      <trkpt lat="47.34017" lon="4.97151">
        <ele>264.49987792969</ele>
        <time>2012-05-24T14:46:17Z</time>
      </trkpt>
      <trkpt lat="47.34024" lon="4.97144">
        <ele>265.46130371094</ele>
        <time>2012-05-24T14:46:20Z</time>
      </trkpt>
      <trkpt lat="47.34032" lon="4.97146">
        <ele>267.38391113281</ele>
        <time>2012-05-24T14:46:24Z</time>
      </trkpt>
      <trkpt lat="47.34037" lon="4.97151">
        <ele>266.90319824219</ele>
        <time>2012-05-24T14:46:26Z</time>
      </trkpt>
      <trkpt lat="47.34039" lon="4.97157">
        <ele>266.90319824219</ele>
        <time>2012-05-24T14:46:29Z</time>
      </trkpt>
      <trkpt lat="47.34043" lon="4.97155">
        <ele>266.42248535156</ele>
        <time>2012-05-24T14:46:32Z</time>
      </trkpt>
      <trkpt lat="47.34058" lon="4.97114">
        <ele>266.42248535156</ele>
        <time>2012-05-24T14:46:42Z</time>
      </trkpt>
      <trkpt lat="47.34067" lon="4.97073">
        <ele>265.94189453125</ele>
        <time>2012-05-24T14:46:49Z</time>
      </trkpt>
      <trkpt lat="47.34073" lon="4.97046">
        <ele>266.90319824219</ele>
        <time>2012-05-24T14:46:53Z</time>
      </trkpt>
      <trkpt lat="47.3409" lon="4.96949">
        <ele>265.94189453125</ele>
        <time>2012-05-24T14:47:06Z</time>
      </trkpt>
      <trkpt lat="47.34101" lon="4.96912">
        <ele>264.49987792969</ele>
        <time>2012-05-24T14:47:10Z</time>
      </trkpt>
      <trkpt lat="47.34116" lon="4.96865">
        <ele>263.05786132812</ele>
        <time>2012-05-24T14:47:15Z</time>
      </trkpt>
      <trkpt lat="47.34125" lon="4.96837">
        <ele>263.53857421875</ele>
        <time>2012-05-24T14:47:18Z</time>
      </trkpt>
      <trkpt lat="47.34129" lon="4.96809">
        <ele>264.01928710938</ele>
        <time>2012-05-24T14:47:21Z</time>
      </trkpt>
      <trkpt lat="47.34148" lon="4.96706">
        <ele>264.49987792969</ele>
        <time>2012-05-24T14:47:33Z</time>
      </trkpt>
      <trkpt lat="47.34165" lon="4.96631">
        <ele>264.98059082031</ele>
        <time>2012-05-24T14:47:42Z</time>
      </trkpt>
      <trkpt lat="47.34172" lon="4.96595">
        <ele>265.46130371094</ele>
        <time>2012-05-24T14:47:47Z</time>
      </trkpt>
      <trkpt lat="47.34176" lon="4.96576">
        <ele>264.98059082031</ele>
        <time>2012-05-24T14:47:51Z</time>
      </trkpt>
      <trkpt lat="47.34187" lon="4.96586">
        <ele>264.49987792969</ele>
        <time>2012-05-24T14:47:57Z</time>
      </trkpt>
      <trkpt lat="47.34193" lon="4.96586">
        <ele>264.01928710938</ele>
        <time>2012-05-24T14:47:59Z</time>
      </trkpt>
      <trkpt lat="47.34198" lon="4.96588">
        <ele>263.53857421875</ele>
        <time>2012-05-24T14:48:01Z</time>
      </trkpt>
      <trkpt lat="47.3421" lon="4.96599">
        <ele>264.49987792969</ele>
        <time>2012-05-24T14:48:06Z</time>
      </trkpt>
      <trkpt lat="47.34232" lon="4.96612">
        <ele>264.49987792969</ele>
        <time>2012-05-24T14:48:20Z</time>
      </trkpt>
      <trkpt lat="47.34234" lon="4.96614">
        <ele>264.01928710938</ele>
        <time>2012-05-24T14:48:36Z</time>
      </trkpt>
      <trkpt lat="47.3423" lon="4.9661">
        <ele>262.5771484375</ele>
        <time>2012-05-24T14:51:40Z</time>
      </trkpt>
      <trkpt lat="47.34213" lon="4.96597">
        <ele>262.09655761719</ele>
        <time>2012-05-24T14:51:48Z</time>
      </trkpt>
      <trkpt lat="47.34176" lon="4.9658">
        <ele>262.09655761719</ele>
        <time>2012-05-24T14:51:57Z</time>
      </trkpt>
      <trkpt lat="47.34176" lon="4.96563">
        <ele>262.09655761719</ele>
        <time>2012-05-24T14:52:00Z</time>
      </trkpt>
      <trkpt lat="47.34176" lon="4.96556">
        <ele>262.09655761719</ele>
        <time>2012-05-24T14:52:01Z</time>
      </trkpt>
      <trkpt lat="47.34178" lon="4.96526">
        <ele>262.09655761719</ele>
        <time>2012-05-24T14:52:05Z</time>
      </trkpt>
      <trkpt lat="47.34191" lon="4.96389">
        <ele>261.61596679688</ele>
        <time>2012-05-24T14:52:21Z</time>
      </trkpt>
      <trkpt lat="47.34191" lon="4.96337">
        <ele>261.13525390625</ele>
        <time>2012-05-24T14:52:27Z</time>
      </trkpt>
      <trkpt lat="47.34189" lon="4.96292">
        <ele>260.65454101562</ele>
        <time>2012-05-24T14:52:32Z</time>
      </trkpt>
      <trkpt lat="47.34189" lon="4.96161">
        <ele>261.13525390625</ele>
        <time>2012-05-24T14:52:47Z</time>
      </trkpt>
      <trkpt lat="47.34191" lon="4.9605">
        <ele>260.65454101562</ele>
        <time>2012-05-24T14:53:02Z</time>
      </trkpt>
      <trkpt lat="47.34193" lon="4.96005">
        <ele>261.13525390625</ele>
        <time>2012-05-24T14:53:08Z</time>
      </trkpt>
      <trkpt lat="47.34185" lon="4.9588">
        <ele>262.09655761719</ele>
        <time>2012-05-24T14:53:24Z</time>
      </trkpt>
      <trkpt lat="47.34168" lon="4.95743">
        <ele>262.5771484375</ele>
        <time>2012-05-24T14:53:42Z</time>
      </trkpt>
      <trkpt lat="47.34155" lon="4.95625">
        <ele>263.53857421875</ele>
        <time>2012-05-24T14:53:57Z</time>
      </trkpt>
      <trkpt lat="47.34153" lon="4.95595">
        <ele>264.01928710938</ele>
        <time>2012-05-24T14:54:01Z</time>
      </trkpt>
      <trkpt lat="47.34153" lon="4.9558">
        <ele>264.01928710938</ele>
        <time>2012-05-24T14:54:03Z</time>
      </trkpt>
      <trkpt lat="47.3415" lon="4.95537">
        <ele>264.98059082031</ele>
        <time>2012-05-24T14:54:11Z</time>
      </trkpt>
      <trkpt lat="47.3415" lon="4.95507">
        <ele>267.38391113281</ele>
        <time>2012-05-24T14:54:20Z</time>
      </trkpt>
      <trkpt lat="47.34148" lon="4.95477">
        <ele>270.26770019531</ele>
        <time>2012-05-24T14:54:33Z</time>
      </trkpt>
      <trkpt lat="47.34148" lon="4.95477">
        <ele>270.74841308594</ele>
        <time>2012-05-24T14:54:34Z</time>
      </trkpt>
      <trkpt lat="47.3415" lon="4.95475">
        <ele>271.22912597656</ele>
        <time>2012-05-24T14:54:44Z</time>
      </trkpt>
      <trkpt lat="47.3415" lon="4.95479">
        <ele>268.34509277344</ele>
        <time>2012-05-24T15:01:23Z</time>
      </trkpt>
      <trkpt lat="47.3415" lon="4.95479">
        <ele>268.34509277344</ele>
        <time>2012-05-24T15:01:24Z</time>
      </trkpt>
      <trkpt lat="47.34148" lon="4.95494">
        <ele>267.86450195312</ele>
        <time>2012-05-24T15:01:28Z</time>
      </trkpt>
      <trkpt lat="47.34153" lon="4.9552">
        <ele>266.42248535156</ele>
        <time>2012-05-24T15:01:33Z</time>
      </trkpt>
      <trkpt lat="47.34144" lon="4.95513">
        <ele>264.98059082031</ele>
        <time>2012-05-24T15:01:38Z</time>
      </trkpt>
      <trkpt lat="47.34127" lon="4.95443">
        <ele>265.94189453125</ele>
        <time>2012-05-24T15:01:52Z</time>
      </trkpt>
      <trkpt lat="47.3411" lon="4.95385">
        <ele>265.94189453125</ele>
        <time>2012-05-24T15:02:02Z</time>
      </trkpt>
      <trkpt lat="47.34097" lon="4.95348">
        <ele>266.42248535156</ele>
        <time>2012-05-24T15:02:08Z</time>
      </trkpt>
      <trkpt lat="47.34073" lon="4.95284">
        <ele>263.53857421875</ele>
        <time>2012-05-24T15:02:19Z</time>
      </trkpt>
      <trkpt lat="47.34035" lon="4.95213">
        <ele>263.05786132812</ele>
        <time>2012-05-24T15:02:33Z</time>
      </trkpt>
      <trkpt lat="47.34011" lon="4.95177">
        <ele>264.01928710938</ele>
        <time>2012-05-24T15:02:41Z</time>
      </trkpt>
      <trkpt lat="47.33968" lon="4.9511">
        <ele>265.94189453125</ele>
        <time>2012-05-24T15:02:57Z</time>
      </trkpt>
      <trkpt lat="47.33927" lon="4.95035">
        <ele>267.38391113281</ele>
        <time>2012-05-24T15:03:14Z</time>
      </trkpt>
      <trkpt lat="47.33917" lon="4.95016">
        <ele>267.38391113281</ele>
        <time>2012-05-24T15:03:18Z</time>
      </trkpt>
      <trkpt lat="47.33878" lon="4.94943">
        <ele>267.86450195312</ele>
        <time>2012-05-24T15:03:34Z</time>
      </trkpt>
      <trkpt lat="47.33841" lon="4.9487">
        <ele>268.82580566406</ele>
        <time>2012-05-24T15:03:51Z</time>
      </trkpt>
      <trkpt lat="47.33796" lon="4.94801">
        <ele>270.74841308594</ele>
        <time>2012-05-24T15:04:07Z</time>
      </trkpt>
      <trkpt lat="47.33756" lon="4.94728">
        <ele>272.1904296875</ele>
        <time>2012-05-24T15:04:24Z</time>
      </trkpt>
      <trkpt lat="47.33719" lon="4.94638">
        <ele>272.67114257812</ele>
        <time>2012-05-24T15:04:42Z</time>
      </trkpt>
      <trkpt lat="47.33719" lon="4.94632">
        <ele>272.1904296875</ele>
        <time>2012-05-24T15:04:43Z</time>
      </trkpt>
      <trkpt lat="47.33715" lon="4.9461">
        <ele>272.1904296875</ele>
        <time>2012-05-24T15:04:46Z</time>
      </trkpt>
      <trkpt lat="47.33711" lon="4.94556">
        <ele>270.74841308594</ele>
        <time>2012-05-24T15:04:53Z</time>
      </trkpt>
      <trkpt lat="47.33719" lon="4.94486">
        <ele>269.787109375</ele>
        <time>2012-05-24T15:05:02Z</time>
      </trkpt>
      <trkpt lat="47.33747" lon="4.94406">
        <ele>269.30651855469</ele>
        <time>2012-05-24T15:05:15Z</time>
      </trkpt>
      <trkpt lat="47.33766" lon="4.9438">
        <ele>265.46130371094</ele>
        <time>2012-05-24T15:05:24Z</time>
      </trkpt>
      <trkpt lat="47.33768" lon="4.94378">
        <ele>265.46130371094</ele>
        <time>2012-05-24T15:05:26Z</time>
      </trkpt>
      <trkpt lat="47.33764" lon="4.94395">
        <ele>264.49987792969</ele>
        <time>2012-05-24T15:05:33Z</time>
      </trkpt>
      <trkpt lat="47.33758" lon="4.94402">
        <ele>264.49987792969</ele>
        <time>2012-05-24T15:05:42Z</time>
      </trkpt>
      <trkpt lat="47.33758" lon="4.94402">
        <ele>264.49987792969</ele>
        <time>2012-05-24T15:05:47Z</time>
      </trkpt>
      <trkpt lat="47.33758" lon="4.94402">
        <ele>264.01928710938</ele>
        <time>2012-05-24T15:06:08Z</time>
      </trkpt>
      <trkpt lat="47.33764" lon="4.94398">
        <ele>262.5771484375</ele>
        <time>2012-05-24T15:09:00Z</time>
      </trkpt>
      <trkpt lat="47.33786" lon="4.9435">
        <ele>264.98059082031</ele>
        <time>2012-05-24T15:09:11Z</time>
      </trkpt>
      <trkpt lat="47.33833" lon="4.94295">
        <ele>267.38391113281</ele>
        <time>2012-05-24T15:09:27Z</time>
      </trkpt>
      <trkpt lat="47.3388" lon="4.94247">
        <ele>267.86450195312</ele>
        <time>2012-05-24T15:09:43Z</time>
      </trkpt>
      <trkpt lat="47.33904" lon="4.94222">
        <ele>267.86450195312</ele>
        <time>2012-05-24T15:09:53Z</time>
      </trkpt>
      <trkpt lat="47.3391" lon="4.94202">
        <ele>267.38391113281</ele>
        <time>2012-05-24T15:10:01Z</time>
      </trkpt>
      <trkpt lat="47.33912" lon="4.94213">
        <ele>267.86450195312</ele>
        <time>2012-05-24T15:10:06Z</time>
      </trkpt>
      <trkpt lat="47.33912" lon="4.94215">
        <ele>267.86450195312</ele>
        <time>2012-05-24T15:10:10Z</time>
      </trkpt>
      <trkpt lat="47.33912" lon="4.94196">
        <ele>268.34509277344</ele>
        <time>2012-05-24T15:10:18Z</time>
      </trkpt>
      <trkpt lat="47.33938" lon="4.94153">
        <ele>267.86450195312</ele>
        <time>2012-05-24T15:10:31Z</time>
      </trkpt>
      <trkpt lat="47.33959" lon="4.94104">
        <ele>268.82580566406</ele>
        <time>2012-05-24T15:10:43Z</time>
      </trkpt>
      <trkpt lat="47.33962" lon="4.94087">
        <ele>269.787109375</ele>
        <time>2012-05-24T15:10:50Z</time>
      </trkpt>
      <trkpt lat="47.33966" lon="4.94078">
        <ele>270.26770019531</ele>
        <time>2012-05-24T15:10:54Z</time>
      </trkpt>
      <trkpt lat="47.33977" lon="4.94069">
        <ele>271.22912597656</ele>
        <time>2012-05-24T15:11:01Z</time>
      </trkpt>
      <trkpt lat="47.33989" lon="4.94069">
        <ele>271.22912597656</ele>
        <time>2012-05-24T15:11:07Z</time>
      </trkpt>
      <trkpt lat="47.34" lon="4.94074">
        <ele>271.22912597656</ele>
        <time>2012-05-24T15:11:14Z</time>
      </trkpt>
      <trkpt lat="47.34015" lon="4.94084">
        <ele>271.22912597656</ele>
        <time>2012-05-24T15:11:24Z</time>
      </trkpt>
      <trkpt lat="47.34052" lon="4.94099">
        <ele>272.1904296875</ele>
        <time>2012-05-24T15:11:42Z</time>
      </trkpt>
      <trkpt lat="47.34077" lon="4.94119">
        <ele>275.07446289062</ele>
        <time>2012-05-24T15:11:55Z</time>
      </trkpt>
      <trkpt lat="47.34105" lon="4.94142">
        <ele>276.51635742188</ele>
        <time>2012-05-24T15:12:10Z</time>
      </trkpt>
      <trkpt lat="47.34131" lon="4.9417">
        <ele>276.9970703125</ele>
        <time>2012-05-24T15:12:23Z</time>
      </trkpt>
      <trkpt lat="47.34165" lon="4.94205">
        <ele>276.03564453125</ele>
        <time>2012-05-24T15:12:36Z</time>
      </trkpt>
      <trkpt lat="47.34176" lon="4.94209">
        <ele>276.03564453125</ele>
        <time>2012-05-24T15:12:41Z</time>
      </trkpt>
      <trkpt lat="47.34191" lon="4.94202">
        <ele>278.43896484375</ele>
        <time>2012-05-24T15:12:49Z</time>
      </trkpt>
      <trkpt lat="47.34198" lon="4.94198">
        <ele>279.40026855469</ele>
        <time>2012-05-24T15:12:52Z</time>
      </trkpt>
      <trkpt lat="47.34208" lon="4.9419">
        <ele>283.24560546875</ele>
        <time>2012-05-24T15:12:59Z</time>
      </trkpt>
      <trkpt lat="47.34234" lon="4.94174">
        <ele>285.16821289062</ele>
        <time>2012-05-24T15:13:10Z</time>
      </trkpt>
      <trkpt lat="47.34266" lon="4.94164">
        <ele>282.76501464844</ele>
        <time>2012-05-24T15:13:21Z</time>
      </trkpt>
      <trkpt lat="47.3429" lon="4.94153">
        <ele>282.76501464844</ele>
        <time>2012-05-24T15:13:31Z</time>
      </trkpt>
      <trkpt lat="47.34313" lon="4.94144">
        <ele>285.64880371094</ele>
        <time>2012-05-24T15:13:43Z</time>
      </trkpt>
      <trkpt lat="47.34324" lon="4.94142">
        <ele>287.0908203125</ele>
        <time>2012-05-24T15:13:54Z</time>
      </trkpt>
      <trkpt lat="47.34341" lon="4.94136">
        <ele>288.53295898438</ele>
        <time>2012-05-24T15:18:40Z</time>
      </trkpt>
      <trkpt lat="47.34352" lon="4.94127">
        <ele>289.01354980469</ele>
        <time>2012-05-24T15:18:47Z</time>
      </trkpt>
      <trkpt lat="47.34354" lon="4.94125">
        <ele>289.494140625</ele>
        <time>2012-05-24T15:19:01Z</time>
      </trkpt>
      <trkpt lat="47.34356" lon="4.94123">
        <ele>290.45556640625</ele>
        <time>2012-05-24T15:19:08Z</time>
      </trkpt>
      <trkpt lat="47.34365" lon="4.94119">
        <ele>290.45556640625</ele>
        <time>2012-05-24T15:19:13Z</time>
      </trkpt>
      <trkpt lat="47.34397" lon="4.94091">
        <ele>288.05224609375</ele>
        <time>2012-05-24T15:19:26Z</time>
      </trkpt>
      <trkpt lat="47.34408" lon="4.94078">
        <ele>287.57141113281</ele>
        <time>2012-05-24T15:19:32Z</time>
      </trkpt>
      <trkpt lat="47.34414" lon="4.94071">
        <ele>287.0908203125</ele>
        <time>2012-05-24T15:19:38Z</time>
      </trkpt>
      <trkpt lat="47.34423" lon="4.94063">
        <ele>286.12951660156</ele>
        <time>2012-05-24T15:19:44Z</time>
      </trkpt>
      <trkpt lat="47.34434" lon="4.94048">
        <ele>286.12951660156</ele>
        <time>2012-05-24T15:19:53Z</time>
      </trkpt>
      <trkpt lat="47.34436" lon="4.94044">
        <ele>286.61022949219</ele>
        <time>2012-05-24T15:19:56Z</time>
      </trkpt>
      <trkpt lat="47.34438" lon="4.94041">
        <ele>287.0908203125</ele>
        <time>2012-05-24T15:19:58Z</time>
      </trkpt>
      <trkpt lat="47.34436" lon="4.94035">
        <ele>287.0908203125</ele>
        <time>2012-05-24T15:20:01Z</time>
      </trkpt>
      <trkpt lat="47.3444" lon="4.94016">
        <ele>287.57141113281</ele>
        <time>2012-05-24T15:20:09Z</time>
      </trkpt>
      <trkpt lat="47.34444" lon="4.93999">
        <ele>288.53295898438</ele>
        <time>2012-05-24T15:20:16Z</time>
      </trkpt>
      <trkpt lat="47.34442" lon="4.93975">
        <ele>289.97485351562</ele>
        <time>2012-05-24T15:20:23Z</time>
      </trkpt>
      <trkpt lat="47.3444" lon="4.9396">
        <ele>290.45556640625</ele>
        <time>2012-05-24T15:20:27Z</time>
      </trkpt>
      <trkpt lat="47.34447" lon="4.93943">
        <ele>291.8974609375</ele>
        <time>2012-05-24T15:20:35Z</time>
      </trkpt>
      <trkpt lat="47.34449" lon="4.93934">
        <ele>291.8974609375</ele>
        <time>2012-05-24T15:20:37Z</time>
      </trkpt>
      <trkpt lat="47.34449" lon="4.93928">
        <ele>292.85876464844</ele>
        <time>2012-05-24T15:20:39Z</time>
      </trkpt>
      <trkpt lat="47.34449" lon="4.93915">
        <ele>293.33935546875</ele>
        <time>2012-05-24T15:20:42Z</time>
      </trkpt>
      <trkpt lat="47.34459" lon="4.93893">
        <ele>296.22351074219</ele>
        <time>2012-05-24T15:20:50Z</time>
      </trkpt>
      <trkpt lat="47.34474" lon="4.9387">
        <ele>297.18469238281</ele>
        <time>2012-05-24T15:20:59Z</time>
      </trkpt>
      <trkpt lat="47.34487" lon="4.9385">
        <ele>298.62670898438</ele>
        <time>2012-05-24T15:21:07Z</time>
      </trkpt>
      <trkpt lat="47.34489" lon="4.93848">
        <ele>299.10729980469</ele>
        <time>2012-05-24T15:21:08Z</time>
      </trkpt>
      <trkpt lat="47.34504" lon="4.93823">
        <ele>302.47192382812</ele>
        <time>2012-05-24T15:21:18Z</time>
      </trkpt>
      <trkpt lat="47.34509" lon="4.93814">
        <ele>303.43322753906</ele>
        <time>2012-05-24T15:21:21Z</time>
      </trkpt>
      <trkpt lat="47.34524" lon="4.93799">
        <ele>303.43322753906</ele>
        <time>2012-05-24T15:21:30Z</time>
      </trkpt>
      <trkpt lat="47.34522" lon="4.9379">
        <ele>301.02990722656</ele>
        <time>2012-05-24T15:21:35Z</time>
      </trkpt>
      <trkpt lat="47.34541" lon="4.93782">
        <ele>296.7041015625</ele>
        <time>2012-05-24T15:21:47Z</time>
      </trkpt>
      <trkpt lat="47.34569" lon="4.93778">
        <ele>294.30078125</ele>
        <time>2012-05-24T15:22:00Z</time>
      </trkpt>
      <trkpt lat="47.34597" lon="4.93775">
        <ele>294.78137207031</ele>
        <time>2012-05-24T15:22:13Z</time>
      </trkpt>
      <trkpt lat="47.3461" lon="4.93773">
        <ele>295.26196289062</ele>
        <time>2012-05-24T15:22:20Z</time>
      </trkpt>
      <trkpt lat="47.34616" lon="4.93771">
        <ele>295.74267578125</ele>
        <time>2012-05-24T15:22:24Z</time>
      </trkpt>
      <trkpt lat="47.34642" lon="4.93765">
        <ele>294.30078125</ele>
        <time>2012-05-24T15:22:34Z</time>
      </trkpt>
      <trkpt lat="47.34659" lon="4.93762">
        <ele>294.78137207031</ele>
        <time>2012-05-24T15:22:42Z</time>
      </trkpt>
      <trkpt lat="47.34676" lon="4.93758">
        <ele>293.82006835938</ele>
        <time>2012-05-24T15:22:50Z</time>
      </trkpt>
      <trkpt lat="47.34704" lon="4.93754">
        <ele>291.8974609375</ele>
        <time>2012-05-24T15:23:01Z</time>
      </trkpt>
      <trkpt lat="47.3473" lon="4.93747">
        <ele>292.85876464844</ele>
        <time>2012-05-24T15:23:12Z</time>
      </trkpt>
      <trkpt lat="47.34745" lon="4.93739">
        <ele>294.78137207031</ele>
        <time>2012-05-24T15:23:20Z</time>
      </trkpt>
      <trkpt lat="47.34753" lon="4.93735">
        <ele>293.82006835938</ele>
        <time>2012-05-24T15:23:26Z</time>
      </trkpt>
      <trkpt lat="47.34771" lon="4.93726">
        <ele>289.494140625</ele>
        <time>2012-05-24T15:23:33Z</time>
      </trkpt>
      <trkpt lat="47.34786" lon="4.93713">
        <ele>286.12951660156</ele>
        <time>2012-05-24T15:23:41Z</time>
      </trkpt>
      <trkpt lat="47.34803" lon="4.93696">
        <ele>284.68762207031</ele>
        <time>2012-05-24T15:23:50Z</time>
      </trkpt>
      <trkpt lat="47.34818" lon="4.93685">
        <ele>288.05224609375</ele>
        <time>2012-05-24T15:23:58Z</time>
      </trkpt>
      <trkpt lat="47.3482" lon="4.93681">
        <ele>289.01354980469</ele>
        <time>2012-05-24T15:24:00Z</time>
      </trkpt>
      <trkpt lat="47.34826" lon="4.93653">
        <ele>292.37817382812</ele>
        <time>2012-05-24T15:24:07Z</time>
      </trkpt>
      <trkpt lat="47.34828" lon="4.93644">
        <ele>292.37817382812</ele>
        <time>2012-05-24T15:24:09Z</time>
      </trkpt>
      <trkpt lat="47.34828" lon="4.93614">
        <ele>291.8974609375</ele>
        <time>2012-05-24T15:24:16Z</time>
      </trkpt>
      <trkpt lat="47.34833" lon="4.93604">
        <ele>290.45556640625</ele>
        <time>2012-05-24T15:24:19Z</time>
      </trkpt>
      <trkpt lat="47.34846" lon="4.93591">
        <ele>289.01354980469</ele>
        <time>2012-05-24T15:24:24Z</time>
      </trkpt>
      <trkpt lat="47.34859" lon="4.93576">
        <ele>288.53295898438</ele>
        <time>2012-05-24T15:24:30Z</time>
      </trkpt>
      <trkpt lat="47.34859" lon="4.93572">
        <ele>287.0908203125</ele>
        <time>2012-05-24T15:24:35Z</time>
      </trkpt>
      <trkpt lat="47.34874" lon="4.9355">
        <ele>286.61022949219</ele>
        <time>2012-05-24T15:24:42Z</time>
      </trkpt>
      <trkpt lat="47.34878" lon="4.93539">
        <ele>286.61022949219</ele>
        <time>2012-05-24T15:24:45Z</time>
      </trkpt>
      <trkpt lat="47.34884" lon="4.93526">
        <ele>287.57141113281</ele>
        <time>2012-05-24T15:24:48Z</time>
      </trkpt>
      <trkpt lat="47.34899" lon="4.93505">
        <ele>291.41674804688</ele>
        <time>2012-05-24T15:24:57Z</time>
      </trkpt>
      <trkpt lat="47.34914" lon="4.9349">
        <ele>296.22351074219</ele>
        <time>2012-05-24T15:25:06Z</time>
      </trkpt>
      <trkpt lat="47.34921" lon="4.93484">
        <ele>298.14611816406</ele>
        <time>2012-05-24T15:25:10Z</time>
      </trkpt>
      <trkpt lat="47.34927" lon="4.93475">
        <ele>301.02990722656</ele>
        <time>2012-05-24T15:25:17Z</time>
      </trkpt>
      <trkpt lat="47.34929" lon="4.93473">
        <ele>301.99133300781</ele>
        <time>2012-05-24T15:25:19Z</time>
      </trkpt>
      <trkpt lat="47.34938" lon="4.93469">
        <ele>303.91394042969</ele>
        <time>2012-05-24T15:25:24Z</time>
      </trkpt>
      <trkpt lat="47.3494" lon="4.93466">
        <ele>304.39465332031</ele>
        <time>2012-05-24T15:25:26Z</time>
      </trkpt>
      <trkpt lat="47.34951" lon="4.93456">
        <ele>308.23986816406</ele>
        <time>2012-05-24T15:25:34Z</time>
      </trkpt>
      <trkpt lat="47.34962" lon="4.93451">
        <ele>310.16247558594</ele>
        <time>2012-05-24T15:25:40Z</time>
      </trkpt>
      <trkpt lat="47.34983" lon="4.93436">
        <ele>306.31726074219</ele>
        <time>2012-05-24T15:25:48Z</time>
      </trkpt>
      <trkpt lat="47.34989" lon="4.93432">
        <ele>304.39465332031</ele>
        <time>2012-05-24T15:25:51Z</time>
      </trkpt>
      <trkpt lat="47.35" lon="4.93426">
        <ele>301.02990722656</ele>
        <time>2012-05-24T15:25:58Z</time>
      </trkpt>
      <trkpt lat="47.35013" lon="4.93413">
        <ele>296.22351074219</ele>
        <time>2012-05-24T15:26:05Z</time>
      </trkpt>
      <trkpt lat="47.35017" lon="4.93406">
        <ele>294.30078125</ele>
        <time>2012-05-24T15:26:08Z</time>
      </trkpt>
      <trkpt lat="47.35019" lon="4.93404">
        <ele>293.82006835938</ele>
        <time>2012-05-24T15:26:09Z</time>
      </trkpt>
      <trkpt lat="47.35037" lon="4.93393">
        <ele>292.37817382812</ele>
        <time>2012-05-24T15:26:16Z</time>
      </trkpt>
      <trkpt lat="47.35052" lon="4.93381">
        <ele>294.30078125</ele>
        <time>2012-05-24T15:26:23Z</time>
      </trkpt>
      <trkpt lat="47.35056" lon="4.93374">
        <ele>295.26196289062</ele>
        <time>2012-05-24T15:26:26Z</time>
      </trkpt>
      <trkpt lat="47.35071" lon="4.93359">
        <ele>297.18469238281</ele>
        <time>2012-05-24T15:26:35Z</time>
      </trkpt>
      <trkpt lat="47.35097" lon="4.93359">
        <ele>303.91394042969</ele>
        <time>2012-05-24T15:26:46Z</time>
      </trkpt>
      <trkpt lat="47.35105" lon="4.93357">
        <ele>309.201171875</ele>
        <time>2012-05-24T15:26:53Z</time>
      </trkpt>
      <trkpt lat="47.35114" lon="4.93353">
        <ele>313.52722167969</ele>
        <time>2012-05-24T15:26:58Z</time>
      </trkpt>
      <trkpt lat="47.35125" lon="4.93348">
        <ele>319.77563476562</ele>
        <time>2012-05-24T15:27:05Z</time>
      </trkpt>
      <trkpt lat="47.35135" lon="4.93344">
        <ele>323.14038085938</ele>
        <time>2012-05-24T15:27:10Z</time>
      </trkpt>
      <trkpt lat="47.3515" lon="4.93335">
        <ele>325.06298828125</ele>
        <time>2012-05-24T15:27:18Z</time>
      </trkpt>
      <trkpt lat="47.35155" lon="4.93333">
        <ele>325.54357910156</ele>
        <time>2012-05-24T15:27:21Z</time>
      </trkpt>
      <trkpt lat="47.35163" lon="4.93333">
        <ele>326.5048828125</ele>
        <time>2012-05-24T15:27:24Z</time>
      </trkpt>
      <trkpt lat="47.35172" lon="4.93335">
        <ele>328.90832519531</ele>
        <time>2012-05-24T15:27:29Z</time>
      </trkpt>
      <trkpt lat="47.35191" lon="4.93335">
        <ele>329.86950683594</ele>
        <time>2012-05-24T15:27:37Z</time>
      </trkpt>
      <trkpt lat="47.35193" lon="4.93335">
        <ele>329.86950683594</ele>
        <time>2012-05-24T15:27:38Z</time>
      </trkpt>
      <trkpt lat="47.35202" lon="4.93335">
        <ele>329.38891601562</ele>
        <time>2012-05-24T15:27:42Z</time>
      </trkpt>
      <trkpt lat="47.35215" lon="4.93329">
        <ele>327.46618652344</ele>
        <time>2012-05-24T15:27:46Z</time>
      </trkpt>
      <trkpt lat="47.35236" lon="4.9332">
        <ele>322.65966796875</ele>
        <time>2012-05-24T15:27:55Z</time>
      </trkpt>
      <trkpt lat="47.35243" lon="4.93312">
        <ele>321.2177734375</ele>
        <time>2012-05-24T15:28:01Z</time>
      </trkpt>
      <trkpt lat="47.35245" lon="4.9331">
        <ele>320.73706054688</ele>
        <time>2012-05-24T15:28:13Z</time>
      </trkpt>
      <trkpt lat="47.35247" lon="4.93308">
        <ele>320.25634765625</ele>
        <time>2012-05-24T15:28:38Z</time>
      </trkpt>
      <trkpt lat="47.35251" lon="4.93303">
        <ele>319.77563476562</ele>
        <time>2012-05-24T15:28:55Z</time>
      </trkpt>
      <trkpt lat="47.35253" lon="4.93299">
        <ele>319.29504394531</ele>
        <time>2012-05-24T15:28:59Z</time>
      </trkpt>
      <trkpt lat="47.35258" lon="4.93275">
        <ele>321.2177734375</ele>
        <time>2012-05-24T15:29:12Z</time>
      </trkpt>
      <trkpt lat="47.35264" lon="4.93254">
        <ele>325.06298828125</ele>
        <time>2012-05-24T15:29:25Z</time>
      </trkpt>
      <trkpt lat="47.35264" lon="4.9325">
        <ele>324.1015625</ele>
        <time>2012-05-24T15:29:36Z</time>
      </trkpt>
      <trkpt lat="47.35262" lon="4.93243">
        <ele>320.73706054688</ele>
        <time>2012-05-24T15:34:37Z</time>
      </trkpt>
      <trkpt lat="47.35264" lon="4.93239">
        <ele>321.2177734375</ele>
        <time>2012-05-24T15:34:55Z</time>
      </trkpt>
      <trkpt lat="47.35266" lon="4.93235">
        <ele>322.17895507812</ele>
        <time>2012-05-24T15:34:59Z</time>
      </trkpt>
      <trkpt lat="47.35268" lon="4.93224">
        <ele>324.58227539062</ele>
        <time>2012-05-24T15:35:07Z</time>
      </trkpt>
      <trkpt lat="47.35273" lon="4.93209">
        <ele>326.98559570312</ele>
        <time>2012-05-24T15:35:15Z</time>
      </trkpt>
      <trkpt lat="47.35275" lon="4.932">
        <ele>327.46618652344</ele>
        <time>2012-05-24T15:35:20Z</time>
      </trkpt>
      <trkpt lat="47.35275" lon="4.93198">
        <ele>327.46618652344</ele>
        <time>2012-05-24T15:35:22Z</time>
      </trkpt>
      <trkpt lat="47.35277" lon="4.93185">
        <ele>329.38891601562</ele>
        <time>2012-05-24T15:35:32Z</time>
      </trkpt>
      <trkpt lat="47.35286" lon="4.93179">
        <ele>330.83093261719</ele>
        <time>2012-05-24T15:35:41Z</time>
      </trkpt>
      <trkpt lat="47.35292" lon="4.93168">
        <ele>332.75354003906</ele>
        <time>2012-05-24T15:35:51Z</time>
      </trkpt>
      <trkpt lat="47.35296" lon="4.9316">
        <ele>335.63732910156</ele>
        <time>2012-05-24T15:36:05Z</time>
      </trkpt>
      <trkpt lat="47.35301" lon="4.93155">
        <ele>339.00207519531</ele>
        <time>2012-05-24T15:36:15Z</time>
      </trkpt>
      <trkpt lat="47.35307" lon="4.93151">
        <ele>344.77001953125</ele>
        <time>2012-05-24T15:36:26Z</time>
      </trkpt>
      <trkpt lat="47.35313" lon="4.93147">
        <ele>349.09582519531</ele>
        <time>2012-05-24T15:36:36Z</time>
      </trkpt>
      <trkpt lat="47.3532" lon="4.93142">
        <ele>351.49914550781</ele>
        <time>2012-05-24T15:36:44Z</time>
      </trkpt>
      <trkpt lat="47.35322" lon="4.93138">
        <ele>352.94116210938</ele>
        <time>2012-05-24T15:36:48Z</time>
      </trkpt>
      <trkpt lat="47.35331" lon="4.93134">
        <ele>355.34448242188</ele>
        <time>2012-05-24T15:36:56Z</time>
      </trkpt>
      <trkpt lat="47.35335" lon="4.93129">
        <ele>356.78637695312</ele>
        <time>2012-05-24T15:37:01Z</time>
      </trkpt>
      <trkpt lat="47.35339" lon="4.93123">
        <ele>359.18969726562</ele>
        <time>2012-05-24T15:37:07Z</time>
      </trkpt>
      <trkpt lat="47.35346" lon="4.93121">
        <ele>360.15112304688</ele>
        <time>2012-05-24T15:37:20Z</time>
      </trkpt>
      <trkpt lat="47.35343" lon="4.93119">
        <ele>359.67041015625</ele>
        <time>2012-05-24T15:37:46Z</time>
      </trkpt>
      <trkpt lat="47.35341" lon="4.93104">
        <ele>355.34448242188</ele>
        <time>2012-05-24T15:44:00Z</time>
      </trkpt>
      <trkpt lat="47.35346" lon="4.93102">
        <ele>356.30578613281</ele>
        <time>2012-05-24T15:44:07Z</time>
      </trkpt>
      <trkpt lat="47.35348" lon="4.93089">
        <ele>358.22839355469</ele>
        <time>2012-05-24T15:44:19Z</time>
      </trkpt>
      <trkpt lat="47.35354" lon="4.93084">
        <ele>358.708984375</ele>
        <time>2012-05-24T15:44:29Z</time>
      </trkpt>
      <trkpt lat="47.35354" lon="4.93082">
        <ele>358.708984375</ele>
        <time>2012-05-24T15:44:33Z</time>
      </trkpt>
      <trkpt lat="47.35358" lon="4.93078">
        <ele>358.708984375</ele>
        <time>2012-05-24T15:44:38Z</time>
      </trkpt>
      <trkpt lat="47.35361" lon="4.93074">
        <ele>358.708984375</ele>
        <time>2012-05-24T15:44:40Z</time>
      </trkpt>
      <trkpt lat="47.35365" lon="4.93072">
        <ele>358.22839355469</ele>
        <time>2012-05-24T15:44:43Z</time>
      </trkpt>
      <trkpt lat="47.35367" lon="4.93067">
        <ele>357.26708984375</ele>
        <time>2012-05-24T15:44:45Z</time>
      </trkpt>
      <trkpt lat="47.35373" lon="4.93057">
        <ele>356.30578613281</ele>
        <time>2012-05-24T15:44:54Z</time>
      </trkpt>
      <trkpt lat="47.35378" lon="4.9305">
        <ele>354.86376953125</ele>
        <time>2012-05-24T15:44:59Z</time>
      </trkpt>
      <trkpt lat="47.35386" lon="4.93044">
        <ele>351.49914550781</ele>
        <time>2012-05-24T15:45:04Z</time>
      </trkpt>
      <trkpt lat="47.35391" lon="4.93039">
        <ele>348.615234375</ele>
        <time>2012-05-24T15:45:09Z</time>
      </trkpt>
      <trkpt lat="47.35391" lon="4.93033">
        <ele>345.73132324219</ele>
        <time>2012-05-24T15:45:21Z</time>
      </trkpt>
      <trkpt lat="47.35389" lon="4.93029">
        <ele>345.25061035156</ele>
        <time>2012-05-24T15:45:33Z</time>
      </trkpt>
      <trkpt lat="47.35393" lon="4.93016">
        <ele>344.77001953125</ele>
        <time>2012-05-24T15:45:41Z</time>
      </trkpt>
      <trkpt lat="47.35401" lon="4.93005">
        <ele>342.84729003906</ele>
        <time>2012-05-24T15:45:52Z</time>
      </trkpt>
      <trkpt lat="47.35401" lon="4.92999">
        <ele>342.36669921875</ele>
        <time>2012-05-24T15:45:55Z</time>
      </trkpt>
      <trkpt lat="47.35404" lon="4.92996">
        <ele>342.36669921875</ele>
        <time>2012-05-24T15:45:57Z</time>
      </trkpt>
      <trkpt lat="47.35404" lon="4.9299">
        <ele>341.4052734375</ele>
        <time>2012-05-24T15:46:01Z</time>
      </trkpt>
      <trkpt lat="47.35406" lon="4.92988">
        <ele>340.92468261719</ele>
        <time>2012-05-24T15:46:03Z</time>
      </trkpt>
      <trkpt lat="47.35408" lon="4.92986">
        <ele>339.96337890625</ele>
        <time>2012-05-24T15:46:05Z</time>
      </trkpt>
      <trkpt lat="47.3541" lon="4.92979">
        <ele>339.00207519531</ele>
        <time>2012-05-24T15:46:09Z</time>
      </trkpt>
      <trkpt lat="47.3541" lon="4.92973">
        <ele>338.521484375</ele>
        <time>2012-05-24T15:46:13Z</time>
      </trkpt>
      <trkpt lat="47.35416" lon="4.92966">
        <ele>337.07946777344</ele>
        <time>2012-05-24T15:46:20Z</time>
      </trkpt>
      <trkpt lat="47.35419" lon="4.92956">
        <ele>338.521484375</ele>
        <time>2012-05-24T15:46:30Z</time>
      </trkpt>
      <trkpt lat="47.35425" lon="4.92939">
        <ele>340.44409179688</ele>
        <time>2012-05-24T15:46:40Z</time>
      </trkpt>
      <trkpt lat="47.35425" lon="4.92936">
        <ele>340.44409179688</ele>
        <time>2012-05-24T15:46:41Z</time>
      </trkpt>
      <trkpt lat="47.35431" lon="4.92928">
        <ele>339.00207519531</ele>
        <time>2012-05-24T15:46:50Z</time>
      </trkpt>
      <trkpt lat="47.35434" lon="4.92923">
        <ele>339.00207519531</ele>
        <time>2012-05-24T15:46:57Z</time>
      </trkpt>
      <trkpt lat="47.35436" lon="4.92919">
        <ele>339.96337890625</ele>
        <time>2012-05-24T15:47:00Z</time>
      </trkpt>
      <trkpt lat="47.35438" lon="4.92915">
        <ele>340.44409179688</ele>
        <time>2012-05-24T15:47:04Z</time>
      </trkpt>
      <trkpt lat="47.35444" lon="4.92906">
        <ele>343.32788085938</ele>
        <time>2012-05-24T15:47:13Z</time>
      </trkpt>
      <trkpt lat="47.35446" lon="4.92902">
        <ele>346.69262695312</ele>
        <time>2012-05-24T15:47:23Z</time>
      </trkpt>
      <trkpt lat="47.35453" lon="4.92898">
        <ele>348.13464355469</ele>
        <time>2012-05-24T15:47:30Z</time>
      </trkpt>
      <trkpt lat="47.35455" lon="4.92889">
        <ele>351.01843261719</ele>
        <time>2012-05-24T15:47:39Z</time>
      </trkpt>
      <trkpt lat="47.35455" lon="4.92889">
        <ele>351.49914550781</ele>
        <time>2012-05-24T15:47:42Z</time>
      </trkpt>
      <trkpt lat="47.35459" lon="4.92885">
        <ele>354.38317871094</ele>
        <time>2012-05-24T15:47:52Z</time>
      </trkpt>
      <trkpt lat="47.35464" lon="4.92881">
        <ele>360.63171386719</ele>
        <time>2012-05-24T15:48:03Z</time>
      </trkpt>
      <trkpt lat="47.35466" lon="4.92872">
        <ele>363.51574707031</ele>
        <time>2012-05-24T15:48:12Z</time>
      </trkpt>
      <trkpt lat="47.35468" lon="4.92861">
        <ele>364.95764160156</ele>
        <time>2012-05-24T15:48:20Z</time>
      </trkpt>
      <trkpt lat="47.3547" lon="4.92857">
        <ele>366.39953613281</ele>
        <time>2012-05-24T15:48:39Z</time>
      </trkpt>
      <trkpt lat="47.35472" lon="4.92848">
        <ele>372.16748046875</ele>
        <time>2012-05-24T15:48:50Z</time>
      </trkpt>
      <trkpt lat="47.35474" lon="4.9284">
        <ele>376.97424316406</ele>
        <time>2012-05-24T15:49:06Z</time>
      </trkpt>
      <trkpt lat="47.35481" lon="4.92833">
        <ele>382.26135253906</ele>
        <time>2012-05-24T15:49:24Z</time>
      </trkpt>
      <trkpt lat="47.35479" lon="4.92825">
        <ele>386.10668945312</ele>
        <time>2012-05-24T15:49:35Z</time>
      </trkpt>
      <trkpt lat="47.35483" lon="4.92818">
        <ele>388.99060058594</ele>
        <time>2012-05-24T15:49:49Z</time>
      </trkpt>
      <trkpt lat="47.35483" lon="4.92808">
        <ele>390.4326171875</ele>
        <time>2012-05-24T15:50:02Z</time>
      </trkpt>
      <trkpt lat="47.35483" lon="4.92808">
        <ele>390.4326171875</ele>
        <time>2012-05-24T15:50:25Z</time>
      </trkpt>
      <trkpt lat="47.35483" lon="4.92808">
        <ele>390.91320800781</ele>
        <time>2012-05-24T15:51:02Z</time>
      </trkpt>
      <trkpt lat="47.35483" lon="4.92799">
        <ele>391.39379882812</ele>
        <time>2012-05-24T15:52:40Z</time>
      </trkpt>
      <trkpt lat="47.35485" lon="4.92797">
        <ele>391.87451171875</ele>
        <time>2012-05-24T15:52:52Z</time>
      </trkpt>
      <trkpt lat="47.35489" lon="4.92797">
        <ele>393.31652832031</ele>
        <time>2012-05-24T15:53:11Z</time>
      </trkpt>
      <trkpt lat="47.35492" lon="4.92799">
        <ele>398.12316894531</ele>
        <time>2012-05-24T15:53:27Z</time>
      </trkpt>
      <trkpt lat="47.35492" lon="4.92801">
        <ele>401.00708007812</ele>
        <time>2012-05-24T15:53:42Z</time>
      </trkpt>
      <trkpt lat="47.35496" lon="4.92795">
        <ele>401.00708007812</ele>
        <time>2012-05-24T15:56:30Z</time>
      </trkpt>
      <trkpt lat="47.35498" lon="4.92784">
        <ele>398.60375976562</ele>
        <time>2012-05-24T15:56:41Z</time>
      </trkpt>
      <trkpt lat="47.35498" lon="4.9278">
        <ele>397.16174316406</ele>
        <time>2012-05-24T15:56:55Z</time>
      </trkpt>
      <trkpt lat="47.35494" lon="4.92771">
        <ele>398.60375976562</ele>
        <time>2012-05-24T15:57:24Z</time>
      </trkpt>
      <trkpt lat="47.35489" lon="4.92769">
        <ele>399.08435058594</ele>
        <time>2012-05-24T15:57:27Z</time>
      </trkpt>
      <trkpt lat="47.35483" lon="4.92758">
        <ele>399.08435058594</ele>
        <time>2012-05-24T15:57:37Z</time>
      </trkpt>
      <trkpt lat="47.35481" lon="4.92752">
        <ele>398.60375976562</ele>
        <time>2012-05-24T15:57:40Z</time>
      </trkpt>
      <trkpt lat="47.35476" lon="4.92743">
        <ele>396.68115234375</ele>
        <time>2012-05-24T15:57:45Z</time>
      </trkpt>
      <trkpt lat="47.35476" lon="4.92741">
        <ele>395.71984863281</ele>
        <time>2012-05-24T15:57:47Z</time>
      </trkpt>
      <trkpt lat="47.35476" lon="4.92735">
        <ele>393.79724121094</ele>
        <time>2012-05-24T15:57:50Z</time>
      </trkpt>
      <trkpt lat="47.35474" lon="4.92724">
        <ele>391.87451171875</ele>
        <time>2012-05-24T15:57:55Z</time>
      </trkpt>
      <trkpt lat="47.35472" lon="4.92711">
        <ele>388.51000976562</ele>
        <time>2012-05-24T15:58:05Z</time>
      </trkpt>
      <trkpt lat="47.35472" lon="4.92709">
        <ele>388.51000976562</ele>
        <time>2012-05-24T15:58:23Z</time>
      </trkpt>
      <trkpt lat="47.35474" lon="4.92702">
        <ele>388.99060058594</ele>
        <time>2012-05-24T15:58:26Z</time>
      </trkpt>
      <trkpt lat="47.35476" lon="4.92694">
        <ele>388.99060058594</ele>
        <time>2012-05-24T15:58:30Z</time>
      </trkpt>
      <trkpt lat="47.35479" lon="4.9269">
        <ele>388.029296875</ele>
        <time>2012-05-24T15:58:36Z</time>
      </trkpt>
      <trkpt lat="47.35472" lon="4.92679">
        <ele>388.99060058594</ele>
        <time>2012-05-24T15:58:47Z</time>
      </trkpt>
      <trkpt lat="47.35468" lon="4.92672">
        <ele>388.99060058594</ele>
        <time>2012-05-24T15:58:49Z</time>
      </trkpt>
      <trkpt lat="47.35466" lon="4.92662">
        <ele>388.99060058594</ele>
        <time>2012-05-24T15:58:53Z</time>
      </trkpt>
      <trkpt lat="47.35451" lon="4.92634">
        <ele>389.95190429688</ele>
        <time>2012-05-24T15:59:04Z</time>
      </trkpt>
      <trkpt lat="47.35449" lon="4.92617">
        <ele>388.51000976562</ele>
        <time>2012-05-24T15:59:10Z</time>
      </trkpt>
      <trkpt lat="47.35438" lon="4.92595">
        <ele>387.06799316406</ele>
        <time>2012-05-24T15:59:17Z</time>
      </trkpt>
      <trkpt lat="47.35427" lon="4.92582">
        <ele>387.06799316406</ele>
        <time>2012-05-24T15:59:21Z</time>
      </trkpt>
      <trkpt lat="47.35412" lon="4.92554">
        <ele>386.10668945312</ele>
        <time>2012-05-24T15:59:28Z</time>
      </trkpt>
      <trkpt lat="47.3541" lon="4.92552">
        <ele>386.10668945312</ele>
        <time>2012-05-24T15:59:37Z</time>
      </trkpt>
      <trkpt lat="47.35408" lon="4.9255">
        <ele>386.10668945312</ele>
        <time>2012-05-24T15:59:39Z</time>
      </trkpt>
      <trkpt lat="47.35395" lon="4.92554">
        <ele>385.6259765625</ele>
        <time>2012-05-24T15:59:44Z</time>
      </trkpt>
      <trkpt lat="47.35371" lon="4.92572">
        <ele>384.66479492188</ele>
        <time>2012-05-24T15:59:49Z</time>
      </trkpt>
      <trkpt lat="47.35352" lon="4.92584">
        <ele>385.14538574219</ele>
        <time>2012-05-24T15:59:53Z</time>
      </trkpt>
      <trkpt lat="47.35281" lon="4.92621">
        <ele>388.029296875</ele>
        <time>2012-05-24T16:00:05Z</time>
      </trkpt>
      <trkpt lat="47.35277" lon="4.92625">
        <ele>388.029296875</ele>
        <time>2012-05-24T16:00:06Z</time>
      </trkpt>
      <trkpt lat="47.35255" lon="4.92645">
        <ele>388.99060058594</ele>
        <time>2012-05-24T16:00:14Z</time>
      </trkpt>
      <trkpt lat="47.35251" lon="4.92647">
        <ele>388.99060058594</ele>
        <time>2012-05-24T16:00:16Z</time>
      </trkpt>
      <trkpt lat="47.35243" lon="4.92651">
        <ele>389.47119140625</ele>
        <time>2012-05-24T16:00:19Z</time>
      </trkpt>
      <trkpt lat="47.35225" lon="4.92655">
        <ele>389.95190429688</ele>
        <time>2012-05-24T16:00:29Z</time>
      </trkpt>
      <trkpt lat="47.35198" lon="4.92672">
        <ele>393.31652832031</ele>
        <time>2012-05-24T16:00:40Z</time>
      </trkpt>
      <trkpt lat="47.3518" lon="4.92683">
        <ele>394.75854492188</ele>
        <time>2012-05-24T16:00:47Z</time>
      </trkpt>
      <trkpt lat="47.35165" lon="4.9269">
        <ele>396.68115234375</ele>
        <time>2012-05-24T16:00:52Z</time>
      </trkpt>
      <trkpt lat="47.35142" lon="4.92707">
        <ele>400.52648925781</ele>
        <time>2012-05-24T16:01:02Z</time>
      </trkpt>
      <trkpt lat="47.3511" lon="4.92724">
        <ele>402.9296875</ele>
        <time>2012-05-24T16:01:12Z</time>
      </trkpt>
      <trkpt lat="47.35082" lon="4.92741">
        <ele>403.41040039062</ele>
        <time>2012-05-24T16:01:22Z</time>
      </trkpt>
      <trkpt lat="47.35065" lon="4.92743">
        <ele>399.56506347656</ele>
        <time>2012-05-24T16:01:31Z</time>
      </trkpt>
      <trkpt lat="47.35062" lon="4.92745">
        <ele>398.60375976562</ele>
        <time>2012-05-24T16:01:43Z</time>
      </trkpt>
      <trkpt lat="47.35049" lon="4.9273">
        <ele>395.71984863281</ele>
        <time>2012-05-24T16:01:49Z</time>
      </trkpt>
      <trkpt lat="47.35028" lon="4.92694">
        <ele>389.47119140625</ele>
        <time>2012-05-24T16:01:57Z</time>
      </trkpt>
      <trkpt lat="47.35007" lon="4.92675">
        <ele>386.10668945312</ele>
        <time>2012-05-24T16:02:02Z</time>
      </trkpt>
      <trkpt lat="47.34987" lon="4.92662">
        <ele>383.22265625</ele>
        <time>2012-05-24T16:02:07Z</time>
      </trkpt>
      <trkpt lat="47.34974" lon="4.92642">
        <ele>380.81945800781</ele>
        <time>2012-05-24T16:02:11Z</time>
      </trkpt>
      <trkpt lat="47.34968" lon="4.92619">
        <ele>377.93542480469</ele>
        <time>2012-05-24T16:02:15Z</time>
      </trkpt>
      <trkpt lat="47.34968" lon="4.92602">
        <ele>375.05151367188</ele>
        <time>2012-05-24T16:02:18Z</time>
      </trkpt>
      <trkpt lat="47.34968" lon="4.92554">
        <ele>364.47692871094</ele>
        <time>2012-05-24T16:02:26Z</time>
      </trkpt>
      <trkpt lat="47.34968" lon="4.92542">
        <ele>361.11242675781</ele>
        <time>2012-05-24T16:02:28Z</time>
      </trkpt>
      <trkpt lat="47.34966" lon="4.92481">
        <ele>346.69262695312</ele>
        <time>2012-05-24T16:02:35Z</time>
      </trkpt>
      <trkpt lat="47.34964" lon="4.92464">
        <ele>342.36669921875</ele>
        <time>2012-05-24T16:02:37Z</time>
      </trkpt>
      <trkpt lat="47.34964" lon="4.92445">
        <ele>338.04077148438</ele>
        <time>2012-05-24T16:02:39Z</time>
      </trkpt>
      <trkpt lat="47.34955" lon="4.924">
        <ele>327.94677734375</ele>
        <time>2012-05-24T16:02:44Z</time>
      </trkpt>
      <trkpt lat="47.34942" lon="4.92314">
        <ele>311.6044921875</ele>
        <time>2012-05-24T16:02:52Z</time>
      </trkpt>
      <trkpt lat="47.34944" lon="4.92267">
        <ele>302.47192382812</ele>
        <time>2012-05-24T16:02:57Z</time>
      </trkpt>
      <trkpt lat="47.34946" lon="4.9222">
        <ele>293.33935546875</ele>
        <time>2012-05-24T16:03:03Z</time>
      </trkpt>
      <trkpt lat="47.34946" lon="4.92192">
        <ele>289.01354980469</ele>
        <time>2012-05-24T16:03:07Z</time>
      </trkpt>
      <trkpt lat="47.34946" lon="4.92183">
        <ele>288.05224609375</ele>
        <time>2012-05-24T16:03:08Z</time>
      </trkpt>
      <trkpt lat="47.34949" lon="4.92134">
        <ele>279.880859375</ele>
        <time>2012-05-24T16:03:15Z</time>
      </trkpt>
      <trkpt lat="47.34929" lon="4.9214">
        <ele>276.9970703125</ele>
        <time>2012-05-24T16:03:22Z</time>
      </trkpt>
      <trkpt lat="47.34901" lon="4.92172">
        <ele>276.51635742188</ele>
        <time>2012-05-24T16:03:33Z</time>
      </trkpt>
      <trkpt lat="47.34859" lon="4.92205">
        <ele>280.84240722656</ele>
        <time>2012-05-24T16:03:46Z</time>
      </trkpt>
      <trkpt lat="47.34852" lon="4.92211">
        <ele>281.32299804688</ele>
        <time>2012-05-24T16:03:48Z</time>
      </trkpt>
      <trkpt lat="47.34824" lon="4.9223">
        <ele>283.72619628906</ele>
        <time>2012-05-24T16:03:55Z</time>
      </trkpt>
      <trkpt lat="47.34796" lon="4.92243">
        <ele>286.61022949219</ele>
        <time>2012-05-24T16:04:01Z</time>
      </trkpt>
      <trkpt lat="47.34777" lon="4.9225">
        <ele>288.53295898438</ele>
        <time>2012-05-24T16:04:05Z</time>
      </trkpt>
      <trkpt lat="47.34758" lon="4.92254">
        <ele>290.45556640625</ele>
        <time>2012-05-24T16:04:09Z</time>
      </trkpt>
      <trkpt lat="47.34753" lon="4.92254">
        <ele>291.41674804688</ele>
        <time>2012-05-24T16:04:10Z</time>
      </trkpt>
      <trkpt lat="47.34745" lon="4.92254">
        <ele>293.33935546875</ele>
        <time>2012-05-24T16:04:12Z</time>
      </trkpt>
      <trkpt lat="47.34734" lon="4.92252">
        <ele>294.78137207031</ele>
        <time>2012-05-24T16:04:14Z</time>
      </trkpt>
      <trkpt lat="47.34719" lon="4.9225">
        <ele>296.7041015625</ele>
        <time>2012-05-24T16:04:17Z</time>
      </trkpt>
      <trkpt lat="47.34665" lon="4.92256">
        <ele>302.47192382812</ele>
        <time>2012-05-24T16:04:29Z</time>
      </trkpt>
      <trkpt lat="47.3464" lon="4.92267">
        <ele>303.91394042969</ele>
        <time>2012-05-24T16:04:34Z</time>
      </trkpt>
      <trkpt lat="47.34612" lon="4.92278">
        <ele>303.43322753906</ele>
        <time>2012-05-24T16:04:40Z</time>
      </trkpt>
      <trkpt lat="47.34592" lon="4.92263">
        <ele>305.83666992188</ele>
        <time>2012-05-24T16:04:47Z</time>
      </trkpt>
      <trkpt lat="47.34582" lon="4.92228">
        <ele>309.201171875</ele>
        <time>2012-05-24T16:04:55Z</time>
      </trkpt>
      <trkpt lat="47.34569" lon="4.9222">
        <ele>310.64306640625</ele>
        <time>2012-05-24T16:05:04Z</time>
      </trkpt>
      <trkpt lat="47.34569" lon="4.92215">
        <ele>311.12377929688</ele>
        <time>2012-05-24T16:05:14Z</time>
      </trkpt>
      <trkpt lat="47.34573" lon="4.92222">
        <ele>310.64306640625</ele>
        <time>2012-05-24T16:06:14Z</time>
      </trkpt>
      <trkpt lat="47.34577" lon="4.92226">
        <ele>312.08520507812</ele>
        <time>2012-05-24T16:06:21Z</time>
      </trkpt>
      <trkpt lat="47.34584" lon="4.92239">
        <ele>312.56579589844</ele>
        <time>2012-05-24T16:06:27Z</time>
      </trkpt>
      <trkpt lat="47.34567" lon="4.92254">
        <ele>312.08520507812</ele>
        <time>2012-05-24T16:06:32Z</time>
      </trkpt>
      <trkpt lat="47.34552" lon="4.92265">
        <ele>311.12377929688</ele>
        <time>2012-05-24T16:06:35Z</time>
      </trkpt>
      <trkpt lat="47.34532" lon="4.92278">
        <ele>310.16247558594</ele>
        <time>2012-05-24T16:06:39Z</time>
      </trkpt>
      <trkpt lat="47.34466" lon="4.92336">
        <ele>305.83666992188</ele>
        <time>2012-05-24T16:06:54Z</time>
      </trkpt>
      <trkpt lat="47.34414" lon="4.92385">
        <ele>303.43322753906</ele>
        <time>2012-05-24T16:07:09Z</time>
      </trkpt>
      <trkpt lat="47.34384" lon="4.92417">
        <ele>301.02990722656</ele>
        <time>2012-05-24T16:07:20Z</time>
      </trkpt>
      <trkpt lat="47.34367" lon="4.92436">
        <ele>300.54931640625</ele>
        <time>2012-05-24T16:07:28Z</time>
      </trkpt>
      <trkpt lat="47.34352" lon="4.92445">
        <ele>301.51062011719</ele>
        <time>2012-05-24T16:07:33Z</time>
      </trkpt>
      <trkpt lat="47.34329" lon="4.92475">
        <ele>303.91394042969</ele>
        <time>2012-05-24T16:07:43Z</time>
      </trkpt>
      <trkpt lat="47.34309" lon="4.9249">
        <ele>304.87524414062</ele>
        <time>2012-05-24T16:07:49Z</time>
      </trkpt>
      <trkpt lat="47.34294" lon="4.92505">
        <ele>306.7978515625</ele>
        <time>2012-05-24T16:07:54Z</time>
      </trkpt>
      <trkpt lat="47.34273" lon="4.92533">
        <ele>307.27856445312</ele>
        <time>2012-05-24T16:08:01Z</time>
      </trkpt>
      <trkpt lat="47.34247" lon="4.92559">
        <ele>306.7978515625</ele>
        <time>2012-05-24T16:08:11Z</time>
      </trkpt>
      <trkpt lat="47.34217" lon="4.92584">
        <ele>305.83666992188</ele>
        <time>2012-05-24T16:08:21Z</time>
      </trkpt>
      <trkpt lat="47.34189" lon="4.92606">
        <ele>307.27856445312</ele>
        <time>2012-05-24T16:08:29Z</time>
      </trkpt>
      <trkpt lat="47.34168" lon="4.92625">
        <ele>309.68188476562</ele>
        <time>2012-05-24T16:08:35Z</time>
      </trkpt>
      <trkpt lat="47.34153" lon="4.92636">
        <ele>310.16247558594</ele>
        <time>2012-05-24T16:08:39Z</time>
      </trkpt>
      <trkpt lat="47.34133" lon="4.9266">
        <ele>310.16247558594</ele>
        <time>2012-05-24T16:08:44Z</time>
      </trkpt>
      <trkpt lat="47.34107" lon="4.92698">
        <ele>311.6044921875</ele>
        <time>2012-05-24T16:08:52Z</time>
      </trkpt>
      <trkpt lat="47.34086" lon="4.92741">
        <ele>315.93041992188</ele>
        <time>2012-05-24T16:08:59Z</time>
      </trkpt>
      <trkpt lat="47.3408" lon="4.92752">
        <ele>317.37243652344</ele>
        <time>2012-05-24T16:09:01Z</time>
      </trkpt>
      <trkpt lat="47.34073" lon="4.92765">
        <ele>319.29504394531</ele>
        <time>2012-05-24T16:09:03Z</time>
      </trkpt>
      <trkpt lat="47.34065" lon="4.92782">
        <ele>323.14038085938</ele>
        <time>2012-05-24T16:09:07Z</time>
      </trkpt>
      <trkpt lat="47.34047" lon="4.92799">
        <ele>328.90832519531</ele>
        <time>2012-05-24T16:09:14Z</time>
      </trkpt>
      <trkpt lat="47.34043" lon="4.9281">
        <ele>326.98559570312</ele>
        <time>2012-05-24T16:09:25Z</time>
      </trkpt>
      <trkpt lat="47.34028" lon="4.92838">
        <ele>328.90832519531</ele>
        <time>2012-05-24T16:09:34Z</time>
      </trkpt>
      <trkpt lat="47.3402" lon="4.92861">
        <ele>330.83093261719</ele>
        <time>2012-05-24T16:09:41Z</time>
      </trkpt>
      <trkpt lat="47.34009" lon="4.92891">
        <ele>333.23413085938</ele>
        <time>2012-05-24T16:09:48Z</time>
      </trkpt>
      <trkpt lat="47.34002" lon="4.92928">
        <ele>333.23413085938</ele>
        <time>2012-05-24T16:09:56Z</time>
      </trkpt>
      <trkpt lat="47.34002" lon="4.92939">
        <ele>332.75354003906</ele>
        <time>2012-05-24T16:09:58Z</time>
      </trkpt>
      <trkpt lat="47.34002" lon="4.92945">
        <ele>332.27282714844</ele>
        <time>2012-05-24T16:09:59Z</time>
      </trkpt>
      <trkpt lat="47.33996" lon="4.92979">
        <ele>330.35021972656</ele>
        <time>2012-05-24T16:10:06Z</time>
      </trkpt>
      <trkpt lat="47.33994" lon="4.93005">
        <ele>329.86950683594</ele>
        <time>2012-05-24T16:10:11Z</time>
      </trkpt>
      <trkpt lat="47.33998" lon="4.93037">
        <ele>328.90832519531</ele>
        <time>2012-05-24T16:10:17Z</time>
      </trkpt>
      <trkpt lat="47.34002" lon="4.93063">
        <ele>326.98559570312</ele>
        <time>2012-05-24T16:10:22Z</time>
      </trkpt>
      <trkpt lat="47.34004" lon="4.93087">
        <ele>326.98559570312</ele>
        <time>2012-05-24T16:10:26Z</time>
      </trkpt>
      <trkpt lat="47.34007" lon="4.9311">
        <ele>327.94677734375</ele>
        <time>2012-05-24T16:10:30Z</time>
      </trkpt>
      <trkpt lat="47.34009" lon="4.93149">
        <ele>332.27282714844</ele>
        <time>2012-05-24T16:10:37Z</time>
      </trkpt>
      <trkpt lat="47.34011" lon="4.9317">
        <ele>334.67614746094</ele>
        <time>2012-05-24T16:10:41Z</time>
      </trkpt>
      <trkpt lat="47.34011" lon="4.93194">
        <ele>337.07946777344</ele>
        <time>2012-05-24T16:10:45Z</time>
      </trkpt>
      <trkpt lat="47.34009" lon="4.9323">
        <ele>340.92468261719</ele>
        <time>2012-05-24T16:10:51Z</time>
      </trkpt>
      <trkpt lat="47.34011" lon="4.93254">
        <ele>341.88598632812</ele>
        <time>2012-05-24T16:10:55Z</time>
      </trkpt>
      <trkpt lat="47.34009" lon="4.93301">
        <ele>343.32788085938</ele>
        <time>2012-05-24T16:11:03Z</time>
      </trkpt>
      <trkpt lat="47.34013" lon="4.93348">
        <ele>346.69262695312</ele>
        <time>2012-05-24T16:11:10Z</time>
      </trkpt>
      <trkpt lat="47.34015" lon="4.9337">
        <ele>350.05725097656</ele>
        <time>2012-05-24T16:11:14Z</time>
      </trkpt>
      <trkpt lat="47.34011" lon="4.93419">
        <ele>357.26708984375</ele>
        <time>2012-05-24T16:11:22Z</time>
      </trkpt>
      <trkpt lat="47.34009" lon="4.93438">
        <ele>360.63171386719</ele>
        <time>2012-05-24T16:11:25Z</time>
      </trkpt>
      <trkpt lat="47.34004" lon="4.93473">
        <ele>372.16748046875</ele>
        <time>2012-05-24T16:11:32Z</time>
      </trkpt>
      <trkpt lat="47.33989" lon="4.93524">
        <ele>385.6259765625</ele>
        <time>2012-05-24T16:11:41Z</time>
      </trkpt>
      <trkpt lat="47.33977" lon="4.93563">
        <ele>392.8359375</ele>
        <time>2012-05-24T16:11:48Z</time>
      </trkpt>
      <trkpt lat="47.33972" lon="4.93591">
        <ele>392.35534667969</ele>
        <time>2012-05-24T16:11:52Z</time>
      </trkpt>
      <trkpt lat="47.33964" lon="4.93621">
        <ele>392.35534667969</ele>
        <time>2012-05-24T16:11:57Z</time>
      </trkpt>
      <trkpt lat="47.33951" lon="4.93681">
        <ele>391.87451171875</ele>
        <time>2012-05-24T16:12:07Z</time>
      </trkpt>
      <trkpt lat="47.33942" lon="4.9372">
        <ele>392.35534667969</ele>
        <time>2012-05-24T16:12:15Z</time>
      </trkpt>
      <trkpt lat="47.3394" lon="4.93747">
        <ele>391.87451171875</ele>
        <time>2012-05-24T16:12:20Z</time>
      </trkpt>
      <trkpt lat="47.33936" lon="4.93762">
        <ele>391.87451171875</ele>
        <time>2012-05-24T16:12:23Z</time>
      </trkpt>
      <trkpt lat="47.33929" lon="4.93778">
        <ele>390.91320800781</ele>
        <time>2012-05-24T16:12:26Z</time>
      </trkpt>
      <trkpt lat="47.33921" lon="4.93812">
        <ele>390.4326171875</ele>
        <time>2012-05-24T16:12:31Z</time>
      </trkpt>
      <trkpt lat="47.3391" lon="4.93883">
        <ele>385.14538574219</ele>
        <time>2012-05-24T16:12:40Z</time>
      </trkpt>
      <trkpt lat="47.33912" lon="4.93941">
        <ele>363.51574707031</ele>
        <time>2012-05-24T16:12:49Z</time>
      </trkpt>
      <trkpt lat="47.33921" lon="4.9399">
        <ele>335.15673828125</ele>
        <time>2012-05-24T16:12:58Z</time>
      </trkpt>
      <trkpt lat="47.33914" lon="4.94029">
        <ele>316.89172363281</ele>
        <time>2012-05-24T16:13:06Z</time>
      </trkpt>
      <trkpt lat="47.33921" lon="4.94089">
        <ele>299.58801269531</ele>
        <time>2012-05-24T16:13:17Z</time>
      </trkpt>
      <trkpt lat="47.3391" lon="4.94174">
        <ele>292.85876464844</ele>
        <time>2012-05-24T16:13:28Z</time>
      </trkpt>
      <trkpt lat="47.33891" lon="4.94222">
        <ele>289.97485351562</ele>
        <time>2012-05-24T16:13:34Z</time>
      </trkpt>
      <trkpt lat="47.33822" lon="4.9429">
        <ele>284.20690917969</ele>
        <time>2012-05-24T16:13:49Z</time>
      </trkpt>
      <trkpt lat="47.33783" lon="4.94327">
        <ele>281.80358886719</ele>
        <time>2012-05-24T16:13:58Z</time>
      </trkpt>
      <trkpt lat="47.33766" lon="4.9434">
        <ele>280.84240722656</ele>
        <time>2012-05-24T16:14:02Z</time>
      </trkpt>
      <trkpt lat="47.33751" lon="4.94355">
        <ele>280.84240722656</ele>
        <time>2012-05-24T16:14:07Z</time>
      </trkpt>
      <trkpt lat="47.33738" lon="4.94363">
        <ele>280.36169433594</ele>
        <time>2012-05-24T16:14:14Z</time>
      </trkpt>
      <trkpt lat="47.33734" lon="4.94365">
        <ele>278.91967773438</ele>
        <time>2012-05-24T16:14:17Z</time>
      </trkpt>
      <trkpt lat="47.33734" lon="4.94383">
        <ele>277.47766113281</ele>
        <time>2012-05-24T16:14:22Z</time>
      </trkpt>
      <trkpt lat="47.33728" lon="4.94451">
        <ele>273.15185546875</ele>
        <time>2012-05-24T16:14:34Z</time>
      </trkpt>
      <trkpt lat="47.33711" lon="4.94535">
        <ele>272.1904296875</ele>
        <time>2012-05-24T16:14:49Z</time>
      </trkpt>
      <trkpt lat="47.33715" lon="4.94619">
        <ele>272.1904296875</ele>
        <time>2012-05-24T16:15:04Z</time>
      </trkpt>
      <trkpt lat="47.33738" lon="4.94694">
        <ele>272.1904296875</ele>
        <time>2012-05-24T16:15:19Z</time>
      </trkpt>
      <trkpt lat="47.33768" lon="4.94752">
        <ele>271.22912597656</ele>
        <time>2012-05-24T16:15:32Z</time>
      </trkpt>
      <trkpt lat="47.33777" lon="4.94767">
        <ele>271.22912597656</ele>
        <time>2012-05-24T16:15:35Z</time>
      </trkpt>
      <trkpt lat="47.33794" lon="4.94795">
        <ele>270.74841308594</ele>
        <time>2012-05-24T16:15:41Z</time>
      </trkpt>
      <trkpt lat="47.33852" lon="4.94889">
        <ele>269.30651855469</ele>
        <time>2012-05-24T16:15:59Z</time>
      </trkpt>
      <trkpt lat="47.33912" lon="4.95009">
        <ele>267.38391113281</ele>
        <time>2012-05-24T16:16:19Z</time>
      </trkpt>
      <trkpt lat="47.33966" lon="4.95106">
        <ele>265.94189453125</ele>
        <time>2012-05-24T16:16:34Z</time>
      </trkpt>
      <trkpt lat="47.3403" lon="4.95209">
        <ele>265.46130371094</ele>
        <time>2012-05-24T16:16:51Z</time>
      </trkpt>
      <trkpt lat="47.34075" lon="4.95292">
        <ele>265.94189453125</ele>
        <time>2012-05-24T16:17:04Z</time>
      </trkpt>
      <trkpt lat="47.34107" lon="4.9537">
        <ele>266.42248535156</ele>
        <time>2012-05-24T16:17:16Z</time>
      </trkpt>
      <trkpt lat="47.34116" lon="4.95398">
        <ele>266.42248535156</ele>
        <time>2012-05-24T16:17:20Z</time>
      </trkpt>
      <trkpt lat="47.34123" lon="4.95423">
        <ele>266.90319824219</ele>
        <time>2012-05-24T16:17:24Z</time>
      </trkpt>
      <trkpt lat="47.34127" lon="4.95475">
        <ele>266.42248535156</ele>
        <time>2012-05-24T16:17:31Z</time>
      </trkpt>
      <trkpt lat="47.34129" lon="4.95488">
        <ele>266.42248535156</ele>
        <time>2012-05-24T16:17:33Z</time>
      </trkpt>
      <trkpt lat="47.34133" lon="4.95507">
        <ele>265.94189453125</ele>
        <time>2012-05-24T16:17:36Z</time>
      </trkpt>
      <trkpt lat="47.34142" lon="4.95528">
        <ele>265.94189453125</ele>
        <time>2012-05-24T16:17:40Z</time>
      </trkpt>
      <trkpt lat="47.34146" lon="4.95541">
        <ele>265.94189453125</ele>
        <time>2012-05-24T16:17:42Z</time>
      </trkpt>
      <trkpt lat="47.34153" lon="4.95646">
        <ele>267.38391113281</ele>
        <time>2012-05-24T16:17:58Z</time>
      </trkpt>
      <trkpt lat="47.34161" lon="4.957">
        <ele>266.90319824219</ele>
        <time>2012-05-24T16:18:06Z</time>
      </trkpt>
      <trkpt lat="47.34176" lon="4.9582">
        <ele>265.46130371094</ele>
        <time>2012-05-24T16:18:24Z</time>
      </trkpt>
      <trkpt lat="47.34183" lon="4.95889">
        <ele>264.49987792969</ele>
        <time>2012-05-24T16:18:34Z</time>
      </trkpt>
      <trkpt lat="47.34185" lon="4.95923">
        <ele>264.01928710938</ele>
        <time>2012-05-24T16:18:39Z</time>
      </trkpt>
      <trkpt lat="47.34189" lon="4.95973">
        <ele>263.05786132812</ele>
        <time>2012-05-24T16:18:46Z</time>
      </trkpt>
      <trkpt lat="47.34189" lon="4.96043">
        <ele>263.05786132812</ele>
        <time>2012-05-24T16:18:57Z</time>
      </trkpt>
      <trkpt lat="47.34189" lon="4.9608">
        <ele>263.53857421875</ele>
        <time>2012-05-24T16:19:03Z</time>
      </trkpt>
      <trkpt lat="47.34185" lon="4.96168">
        <ele>264.01928710938</ele>
        <time>2012-05-24T16:19:16Z</time>
      </trkpt>
      <trkpt lat="47.34185" lon="4.96284">
        <ele>263.05786132812</ele>
        <time>2012-05-24T16:19:33Z</time>
      </trkpt>
      <trkpt lat="47.34189" lon="4.96395">
        <ele>262.5771484375</ele>
        <time>2012-05-24T16:19:48Z</time>
      </trkpt>
      <trkpt lat="47.34189" lon="4.96415">
        <ele>262.5771484375</ele>
        <time>2012-05-24T16:19:51Z</time>
      </trkpt>
      <trkpt lat="47.34183" lon="4.96477">
        <ele>263.53857421875</ele>
        <time>2012-05-24T16:20:00Z</time>
      </trkpt>
      <trkpt lat="47.34174" lon="4.96561">
        <ele>264.01928710938</ele>
        <time>2012-05-24T16:20:15Z</time>
      </trkpt>
      <trkpt lat="47.34168" lon="4.96608">
        <ele>264.01928710938</ele>
        <time>2012-05-24T16:20:26Z</time>
      </trkpt>
      <trkpt lat="47.34155" lon="4.96668">
        <ele>264.01928710938</ele>
        <time>2012-05-24T16:20:39Z</time>
      </trkpt>
      <trkpt lat="47.34138" lon="4.96752">
        <ele>263.53857421875</ele>
        <time>2012-05-24T16:20:53Z</time>
      </trkpt>
      <trkpt lat="47.34133" lon="4.96767">
        <ele>263.05786132812</ele>
        <time>2012-05-24T16:20:55Z</time>
      </trkpt>
      <trkpt lat="47.34112" lon="4.96872">
        <ele>262.5771484375</ele>
        <time>2012-05-24T16:21:08Z</time>
      </trkpt>
      <trkpt lat="47.34101" lon="4.96906">
        <ele>263.53857421875</ele>
        <time>2012-05-24T16:21:13Z</time>
      </trkpt>
      <trkpt lat="47.34095" lon="4.96925">
        <ele>263.53857421875</ele>
        <time>2012-05-24T16:21:16Z</time>
      </trkpt>
      <trkpt lat="47.3409" lon="4.96945">
        <ele>264.01928710938</ele>
        <time>2012-05-24T16:21:19Z</time>
      </trkpt>
      <trkpt lat="47.34075" lon="4.97007">
        <ele>265.94189453125</ele>
        <time>2012-05-24T16:21:28Z</time>
      </trkpt>
      <trkpt lat="47.34062" lon="4.97088">
        <ele>267.86450195312</ele>
        <time>2012-05-24T16:21:39Z</time>
      </trkpt>
      <trkpt lat="47.34058" lon="4.97108">
        <ele>268.34509277344</ele>
        <time>2012-05-24T16:21:42Z</time>
      </trkpt>
      <trkpt lat="47.34043" lon="4.97157">
        <ele>269.787109375</ele>
        <time>2012-05-24T16:21:51Z</time>
      </trkpt>
      <trkpt lat="47.3403" lon="4.97194">
        <ele>271.70971679688</ele>
        <time>2012-05-24T16:21:58Z</time>
      </trkpt>
      <trkpt lat="47.34022" lon="4.97209">
        <ele>272.67114257812</ele>
        <time>2012-05-24T16:22:01Z</time>
      </trkpt>
      <trkpt lat="47.34011" lon="4.97232">
        <ele>273.63244628906</ele>
        <time>2012-05-24T16:22:05Z</time>
      </trkpt>
      <trkpt lat="47.33989" lon="4.97292">
        <ele>273.63244628906</ele>
        <time>2012-05-24T16:22:15Z</time>
      </trkpt>
      <trkpt lat="47.33983" lon="4.97307">
        <ele>273.15185546875</ele>
        <time>2012-05-24T16:22:18Z</time>
      </trkpt>
      <trkpt lat="47.33968" lon="4.97348">
        <ele>271.70971679688</ele>
        <time>2012-05-24T16:22:28Z</time>
      </trkpt>
      <trkpt lat="47.33947" lon="4.9741">
        <ele>270.26770019531</ele>
        <time>2012-05-24T16:22:41Z</time>
      </trkpt>
      <trkpt lat="47.33917" lon="4.97498">
        <ele>270.74841308594</ele>
        <time>2012-05-24T16:22:56Z</time>
      </trkpt>
      <trkpt lat="47.33899" lon="4.97543">
        <ele>270.26770019531</ele>
        <time>2012-05-24T16:23:03Z</time>
      </trkpt>
      <trkpt lat="47.3385" lon="4.97606">
        <ele>267.38391113281</ele>
        <time>2012-05-24T16:23:14Z</time>
      </trkpt>
      <trkpt lat="47.33799" lon="4.97674">
        <ele>264.98059082031</ele>
        <time>2012-05-24T16:23:26Z</time>
      </trkpt>
      <trkpt lat="47.33751" lon="4.97739">
        <ele>264.49987792969</ele>
        <time>2012-05-24T16:23:40Z</time>
      </trkpt>
      <trkpt lat="47.33723" lon="4.97782">
        <ele>262.09655761719</ele>
        <time>2012-05-24T16:23:51Z</time>
      </trkpt>
      <trkpt lat="47.33676" lon="4.97852">
        <ele>261.61596679688</ele>
        <time>2012-05-24T16:24:08Z</time>
      </trkpt>
      <trkpt lat="47.33646" lon="4.97897">
        <ele>261.13525390625</ele>
        <time>2012-05-24T16:24:19Z</time>
      </trkpt>
      <trkpt lat="47.33612" lon="4.97945">
        <ele>262.09655761719</ele>
        <time>2012-05-24T16:24:32Z</time>
      </trkpt>
      <trkpt lat="47.3358" lon="4.97981">
        <ele>262.09655761719</ele>
        <time>2012-05-24T16:24:45Z</time>
      </trkpt>
      <trkpt lat="47.33532" lon="4.98039">
        <ele>259.21264648438</ele>
        <time>2012-05-24T16:25:01Z</time>
      </trkpt>
      <trkpt lat="47.33502" lon="4.98073">
        <ele>258.25134277344</ele>
        <time>2012-05-24T16:25:10Z</time>
      </trkpt>
      <trkpt lat="47.3347" lon="4.98108">
        <ele>257.2900390625</ele>
        <time>2012-05-24T16:25:19Z</time>
      </trkpt>
      <trkpt lat="47.33453" lon="4.98127">
        <ele>256.80932617188</ele>
        <time>2012-05-24T16:25:24Z</time>
      </trkpt>
      <trkpt lat="47.33419" lon="4.98166">
        <ele>255.84802246094</ele>
        <time>2012-05-24T16:25:36Z</time>
      </trkpt>
      <trkpt lat="47.33406" lon="4.98178">
        <ele>254.88659667969</ele>
        <time>2012-05-24T16:25:40Z</time>
      </trkpt>
      <trkpt lat="47.33363" lon="4.98215">
        <ele>255.36730957031</ele>
        <time>2012-05-24T16:25:51Z</time>
      </trkpt>
      <trkpt lat="47.3335" lon="4.98226">
        <ele>255.36730957031</ele>
        <time>2012-05-24T16:25:54Z</time>
      </trkpt>
      <trkpt lat="47.33326" lon="4.98269">
        <ele>255.84802246094</ele>
        <time>2012-05-24T16:26:02Z</time>
      </trkpt>
      <trkpt lat="47.3332" lon="4.9829">
        <ele>255.84802246094</ele>
        <time>2012-05-24T16:26:05Z</time>
      </trkpt>
      <trkpt lat="47.33311" lon="4.98333">
        <ele>255.84802246094</ele>
        <time>2012-05-24T16:26:11Z</time>
      </trkpt>
      <trkpt lat="47.33301" lon="4.98434">
        <ele>254.88659667969</ele>
        <time>2012-05-24T16:26:25Z</time>
      </trkpt>
      <trkpt lat="47.33299" lon="4.98447">
        <ele>254.40600585938</ele>
        <time>2012-05-24T16:26:27Z</time>
      </trkpt>
      <trkpt lat="47.33286" lon="4.98479">
        <ele>254.88659667969</ele>
        <time>2012-05-24T16:26:32Z</time>
      </trkpt>
      <trkpt lat="47.33253" lon="4.98535">
        <ele>255.84802246094</ele>
        <time>2012-05-24T16:26:42Z</time>
      </trkpt>
      <trkpt lat="47.332" lon="4.98631">
        <ele>257.2900390625</ele>
        <time>2012-05-24T16:27:00Z</time>
      </trkpt>
      <trkpt lat="47.33187" lon="4.98657">
        <ele>257.77075195312</ele>
        <time>2012-05-24T16:27:05Z</time>
      </trkpt>
      <trkpt lat="47.33161" lon="4.98751">
        <ele>258.25134277344</ele>
        <time>2012-05-24T16:27:22Z</time>
      </trkpt>
      <trkpt lat="47.33142" lon="4.98829">
        <ele>257.77075195312</ele>
        <time>2012-05-24T16:27:37Z</time>
      </trkpt>
      <trkpt lat="47.33125" lon="4.98887">
        <ele>256.32873535156</ele>
        <time>2012-05-24T16:27:49Z</time>
      </trkpt>
      <trkpt lat="47.33108" lon="4.98957">
        <ele>254.40600585938</ele>
        <time>2012-05-24T16:28:03Z</time>
      </trkpt>
      <trkpt lat="47.33101" lon="4.99009">
        <ele>254.88659667969</ele>
        <time>2012-05-24T16:28:15Z</time>
      </trkpt>
      <trkpt lat="47.33099" lon="4.9902">
        <ele>254.88659667969</ele>
        <time>2012-05-24T16:28:18Z</time>
      </trkpt>
      <trkpt lat="47.3309" lon="4.99032">
        <ele>255.36730957031</ele>
        <time>2012-05-24T16:28:23Z</time>
      </trkpt>
      <trkpt lat="47.3308" lon="4.99067">
        <ele>257.77075195312</ele>
        <time>2012-05-24T16:28:34Z</time>
      </trkpt>
      <trkpt lat="47.33075" lon="4.99075">
        <ele>257.77075195312</ele>
        <time>2012-05-24T16:28:37Z</time>
      </trkpt>
      <trkpt lat="47.33073" lon="4.9908">
        <ele>257.2900390625</ele>
        <time>2012-05-24T16:28:39Z</time>
      </trkpt>
      <trkpt lat="47.33063" lon="4.9908">
        <ele>257.2900390625</ele>
        <time>2012-05-24T16:28:43Z</time>
      </trkpt>
      <trkpt lat="47.3306" lon="4.9908">
        <ele>257.2900390625</ele>
        <time>2012-05-24T16:28:44Z</time>
      </trkpt>
      <trkpt lat="47.33045" lon="4.9905">
        <ele>256.80932617188</ele>
        <time>2012-05-24T16:28:51Z</time>
      </trkpt>
      <trkpt lat="47.33022" lon="4.98983">
        <ele>257.77075195312</ele>
        <time>2012-05-24T16:29:04Z</time>
      </trkpt>
      <trkpt lat="47.32983" lon="4.98938">
        <ele>258.73193359375</ele>
        <time>2012-05-24T16:29:17Z</time>
      </trkpt>
      <trkpt lat="47.32981" lon="4.98934">
        <ele>258.73193359375</ele>
        <time>2012-05-24T16:29:18Z</time>
      </trkpt>
      <trkpt lat="47.32972" lon="4.98923">
        <ele>259.21264648438</ele>
        <time>2012-05-24T16:29:21Z</time>
      </trkpt>
      <trkpt lat="47.32951" lon="4.98902">
        <ele>259.21264648438</ele>
        <time>2012-05-24T16:29:27Z</time>
      </trkpt>
      <trkpt lat="47.3294" lon="4.98895">
        <ele>258.73193359375</ele>
        <time>2012-05-24T16:29:30Z</time>
      </trkpt>
      <trkpt lat="47.3291" lon="4.9888">
        <ele>257.77075195312</ele>
        <time>2012-05-24T16:29:37Z</time>
      </trkpt>
      <trkpt lat="47.32878" lon="4.98861">
        <ele>258.25134277344</ele>
        <time>2012-05-24T16:29:48Z</time>
      </trkpt>
      <trkpt lat="47.32846" lon="4.98863">
        <ele>256.32873535156</ele>
        <time>2012-05-24T16:30:00Z</time>
      </trkpt>
      <trkpt lat="47.32824" lon="4.98859">
        <ele>256.80932617188</ele>
        <time>2012-05-24T16:30:10Z</time>
      </trkpt>
      <trkpt lat="47.32805" lon="4.98869">
        <ele>256.80932617188</ele>
        <time>2012-05-24T16:30:19Z</time>
      </trkpt>
      <trkpt lat="47.32801" lon="4.98874">
        <ele>256.80932617188</ele>
        <time>2012-05-24T16:30:21Z</time>
      </trkpt>
      <trkpt lat="47.32792" lon="4.98887">
        <ele>256.80932617188</ele>
        <time>2012-05-24T16:30:27Z</time>
      </trkpt>
      <trkpt lat="47.32777" lon="4.9891">
        <ele>257.2900390625</ele>
        <time>2012-05-24T16:30:35Z</time>
      </trkpt>
      <trkpt lat="47.32764" lon="4.98962">
        <ele>258.73193359375</ele>
        <time>2012-05-24T16:30:46Z</time>
      </trkpt>
      <trkpt lat="47.32745" lon="4.99045">
        <ele>257.77075195312</ele>
        <time>2012-05-24T16:31:02Z</time>
      </trkpt>
      <trkpt lat="47.32734" lon="4.9911">
        <ele>256.32873535156</ele>
        <time>2012-05-24T16:31:14Z</time>
      </trkpt>
      <trkpt lat="47.3273" lon="4.99125">
        <ele>255.84802246094</ele>
        <time>2012-05-24T16:31:17Z</time>
      </trkpt>
      <trkpt lat="47.32715" lon="4.99196">
        <ele>254.40600585938</ele>
        <time>2012-05-24T16:31:30Z</time>
      </trkpt>
      <trkpt lat="47.32708" lon="4.99249">
        <ele>253.44470214844</ele>
        <time>2012-05-24T16:31:41Z</time>
      </trkpt>
      <trkpt lat="47.32698" lon="4.99299">
        <ele>253.44470214844</ele>
        <time>2012-05-24T16:31:51Z</time>
      </trkpt>
      <trkpt lat="47.32693" lon="4.99348">
        <ele>251.04138183594</ele>
        <time>2012-05-24T16:32:00Z</time>
      </trkpt>
      <trkpt lat="47.32691" lon="4.99361">
        <ele>250.56079101562</ele>
        <time>2012-05-24T16:32:02Z</time>
      </trkpt>
      <trkpt lat="47.32689" lon="4.99384">
        <ele>250.56079101562</ele>
        <time>2012-05-24T16:32:06Z</time>
      </trkpt>
      <trkpt lat="47.32685" lon="4.99408">
        <ele>250.08020019531</ele>
        <time>2012-05-24T16:32:10Z</time>
      </trkpt>
      <trkpt lat="47.32683" lon="4.99427">
        <ele>250.08020019531</ele>
        <time>2012-05-24T16:32:13Z</time>
      </trkpt>
      <trkpt lat="47.32678" lon="4.99444">
        <ele>250.08020019531</ele>
        <time>2012-05-24T16:32:16Z</time>
      </trkpt>
      <trkpt lat="47.32674" lon="4.99462">
        <ele>250.08020019531</ele>
        <time>2012-05-24T16:32:19Z</time>
      </trkpt>
      <trkpt lat="47.32668" lon="4.99509">
        <ele>249.11877441406</ele>
        <time>2012-05-24T16:32:27Z</time>
      </trkpt>
      <trkpt lat="47.32648" lon="4.99563">
        <ele>247.6767578125</ele>
        <time>2012-05-24T16:32:37Z</time>
      </trkpt>
      <trkpt lat="47.32644" lon="4.99573">
        <ele>247.19604492188</ele>
        <time>2012-05-24T16:32:39Z</time>
      </trkpt>
      <trkpt lat="47.32638" lon="4.99588">
        <ele>247.19604492188</ele>
        <time>2012-05-24T16:32:42Z</time>
      </trkpt>
      <trkpt lat="47.32625" lon="4.99635">
        <ele>245.75415039062</ele>
        <time>2012-05-24T16:32:50Z</time>
      </trkpt>
      <trkpt lat="47.32608" lon="4.99689">
        <ele>242.87023925781</ele>
        <time>2012-05-24T16:33:01Z</time>
      </trkpt>
      <trkpt lat="47.32599" lon="4.99738">
        <ele>243.35083007812</ele>
        <time>2012-05-24T16:33:12Z</time>
      </trkpt>
      <trkpt lat="47.32599" lon="4.99786">
        <ele>240.46704101562</ele>
        <time>2012-05-24T16:33:23Z</time>
      </trkpt>
      <trkpt lat="47.32597" lon="4.99837">
        <ele>247.19604492188</ele>
        <time>2012-05-24T16:33:33Z</time>
      </trkpt>
      <trkpt lat="47.32599" lon="4.99891">
        <ele>247.6767578125</ele>
        <time>2012-05-24T16:33:43Z</time>
      </trkpt>
      <trkpt lat="47.32603" lon="4.99951">
        <ele>248.15759277344</ele>
        <time>2012-05-24T16:33:53Z</time>
      </trkpt>
      <trkpt lat="47.32601" lon="4.99977">
        <ele>247.6767578125</ele>
        <time>2012-05-24T16:33:57Z</time>
      </trkpt>
      <trkpt lat="47.32599" lon="5.00005">
        <ele>247.6767578125</ele>
        <time>2012-05-24T16:34:01Z</time>
      </trkpt>
      <trkpt lat="47.32586" lon="5.00086">
        <ele>244.79284667969</ele>
        <time>2012-05-24T16:34:15Z</time>
      </trkpt>
      <trkpt lat="47.3258" lon="5.00114">
        <ele>242.87023925781</ele>
        <time>2012-05-24T16:34:20Z</time>
      </trkpt>
      <trkpt lat="47.32563" lon="5.00157">
        <ele>238.54431152344</ele>
        <time>2012-05-24T16:34:28Z</time>
      </trkpt>
      <trkpt lat="47.32543" lon="5.00191">
        <ele>236.14099121094</ele>
        <time>2012-05-24T16:34:36Z</time>
      </trkpt>
      <trkpt lat="47.3252" lon="5.00221">
        <ele>235.66027832031</ele>
        <time>2012-05-24T16:34:43Z</time>
      </trkpt>
      <trkpt lat="47.32513" lon="5.0023">
        <ele>235.66027832031</ele>
        <time>2012-05-24T16:34:45Z</time>
      </trkpt>
      <trkpt lat="47.32492" lon="5.00258">
        <ele>235.1796875</ele>
        <time>2012-05-24T16:34:54Z</time>
      </trkpt>
      <trkpt lat="47.32453" lon="5.00303">
        <ele>234.69909667969</ele>
        <time>2012-05-24T16:35:08Z</time>
      </trkpt>
      <trkpt lat="47.32423" lon="5.00335">
        <ele>233.73767089844</ele>
        <time>2012-05-24T16:35:18Z</time>
      </trkpt>
      <trkpt lat="47.32412" lon="5.00352">
        <ele>233.73767089844</ele>
        <time>2012-05-24T16:35:22Z</time>
      </trkpt>
      <trkpt lat="47.32406" lon="5.00361">
        <ele>234.69909667969</ele>
        <time>2012-05-24T16:35:24Z</time>
      </trkpt>
      <trkpt lat="47.32374" lon="5.00417">
        <ele>233.25708007812</ele>
        <time>2012-05-24T16:35:36Z</time>
      </trkpt>
      <trkpt lat="47.32372" lon="5.00427">
        <ele>232.77648925781</ele>
        <time>2012-05-24T16:35:38Z</time>
      </trkpt>
      <trkpt lat="47.32361" lon="5.00468">
        <ele>231.81494140625</ele>
        <time>2012-05-24T16:35:45Z</time>
      </trkpt>
      <trkpt lat="47.32354" lon="5.00498">
        <ele>231.33435058594</ele>
        <time>2012-05-24T16:35:50Z</time>
      </trkpt>
      <trkpt lat="47.3235" lon="5.00537">
        <ele>230.85375976562</ele>
        <time>2012-05-24T16:35:56Z</time>
      </trkpt>
      <trkpt lat="47.32348" lon="5.00562">
        <ele>230.85375976562</ele>
        <time>2012-05-24T16:36:00Z</time>
      </trkpt>
      <trkpt lat="47.32352" lon="5.00584">
        <ele>231.33435058594</ele>
        <time>2012-05-24T16:36:04Z</time>
      </trkpt>
      <trkpt lat="47.32374" lon="5.00601">
        <ele>233.25708007812</ele>
        <time>2012-05-24T16:36:11Z</time>
      </trkpt>
      <trkpt lat="47.32395" lon="5.00631">
        <ele>235.1796875</ele>
        <time>2012-05-24T16:36:18Z</time>
      </trkpt>
      <trkpt lat="47.32404" lon="5.00663">
        <ele>236.14099121094</ele>
        <time>2012-05-24T16:36:23Z</time>
      </trkpt>
      <trkpt lat="47.3241" lon="5.00689">
        <ele>238.54431152344</ele>
        <time>2012-05-24T16:36:27Z</time>
      </trkpt>
      <trkpt lat="47.32421" lon="5.0073">
        <ele>241.42822265625</ele>
        <time>2012-05-24T16:36:37Z</time>
      </trkpt>
      <trkpt lat="47.32423" lon="5.00766">
        <ele>242.87023925781</ele>
        <time>2012-05-24T16:36:47Z</time>
      </trkpt>
      <trkpt lat="47.32406" lon="5.00777">
        <ele>241.90893554688</ele>
        <time>2012-05-24T16:36:51Z</time>
      </trkpt>
      <trkpt lat="47.32367" lon="5.00786">
        <ele>239.02490234375</ele>
        <time>2012-05-24T16:36:57Z</time>
      </trkpt>
      <trkpt lat="47.32339" lon="5.00781">
        <ele>237.58288574219</ele>
        <time>2012-05-24T16:37:01Z</time>
      </trkpt>
      <trkpt lat="47.32316" lon="5.00783">
        <ele>237.58288574219</ele>
        <time>2012-05-24T16:37:05Z</time>
      </trkpt>
      <trkpt lat="47.32266" lon="5.00803">
        <ele>235.66027832031</ele>
        <time>2012-05-24T16:37:15Z</time>
      </trkpt>
      <trkpt lat="47.32249" lon="5.00818">
        <ele>235.1796875</ele>
        <time>2012-05-24T16:37:19Z</time>
      </trkpt>
      <trkpt lat="47.32245" lon="5.00822">
        <ele>235.1796875</ele>
        <time>2012-05-24T16:37:20Z</time>
      </trkpt>
      <trkpt lat="47.32204" lon="5.00871">
        <ele>234.69909667969</ele>
        <time>2012-05-24T16:37:30Z</time>
      </trkpt>
      <trkpt lat="47.32193" lon="5.00886">
        <ele>234.69909667969</ele>
        <time>2012-05-24T16:37:33Z</time>
      </trkpt>
      <trkpt lat="47.32168" lon="5.00962">
        <ele>234.69909667969</ele>
        <time>2012-05-24T16:37:44Z</time>
      </trkpt>
      <trkpt lat="47.3217" lon="5.00981">
        <ele>234.69909667969</ele>
        <time>2012-05-24T16:37:47Z</time>
      </trkpt>
      <trkpt lat="47.32168" lon="5.01">
        <ele>234.21838378906</ele>
        <time>2012-05-24T16:37:50Z</time>
      </trkpt>
      <trkpt lat="47.32159" lon="5.01015">
        <ele>233.73767089844</ele>
        <time>2012-05-24T16:37:53Z</time>
      </trkpt>
      <trkpt lat="47.32144" lon="5.01039">
        <ele>233.73767089844</ele>
        <time>2012-05-24T16:37:58Z</time>
      </trkpt>
      <trkpt lat="47.32138" lon="5.01062">
        <ele>233.73767089844</ele>
        <time>2012-05-24T16:38:02Z</time>
      </trkpt>
      <trkpt lat="47.32129" lon="5.01077">
        <ele>235.1796875</ele>
        <time>2012-05-24T16:38:07Z</time>
      </trkpt>
      <trkpt lat="47.32123" lon="5.01088">
        <ele>235.1796875</ele>
        <time>2012-05-24T16:38:11Z</time>
      </trkpt>
      <trkpt lat="47.32097" lon="5.01114">
        <ele>231.81494140625</ele>
        <time>2012-05-24T16:38:20Z</time>
      </trkpt>
      <trkpt lat="47.32086" lon="5.01127">
        <ele>230.85375976562</ele>
        <time>2012-05-24T16:38:23Z</time>
      </trkpt>
      <trkpt lat="47.3206" lon="5.01157">
        <ele>228.93115234375</ele>
        <time>2012-05-24T16:38:30Z</time>
      </trkpt>
      <trkpt lat="47.3205" lon="5.01161">
        <ele>228.45043945312</ele>
        <time>2012-05-24T16:38:32Z</time>
      </trkpt>
      <trkpt lat="47.32026" lon="5.0117">
        <ele>227.48913574219</ele>
        <time>2012-05-24T16:38:37Z</time>
      </trkpt>
      <trkpt lat="47.31996" lon="5.01168">
        <ele>228.93115234375</ele>
        <time>2012-05-24T16:38:42Z</time>
      </trkpt>
      <trkpt lat="47.31968" lon="5.0117">
        <ele>229.89233398438</ele>
        <time>2012-05-24T16:38:47Z</time>
      </trkpt>
      <trkpt lat="47.31951" lon="5.01176">
        <ele>230.373046875</ele>
        <time>2012-05-24T16:38:50Z</time>
      </trkpt>
      <trkpt lat="47.31925" lon="5.01187">
        <ele>230.373046875</ele>
        <time>2012-05-24T16:38:55Z</time>
      </trkpt>
      <trkpt lat="47.3191" lon="5.012">
        <ele>231.33435058594</ele>
        <time>2012-05-24T16:38:58Z</time>
      </trkpt>
      <trkpt lat="47.31902" lon="5.0121">
        <ele>231.81494140625</ele>
        <time>2012-05-24T16:39:00Z</time>
      </trkpt>
      <trkpt lat="47.31887" lon="5.0123">
        <ele>233.25708007812</ele>
        <time>2012-05-24T16:39:04Z</time>
      </trkpt>
      <trkpt lat="47.31852" lon="5.01268">
        <ele>236.62170410156</ele>
        <time>2012-05-24T16:39:12Z</time>
      </trkpt>
      <trkpt lat="47.31846" lon="5.01277">
        <ele>237.10229492188</ele>
        <time>2012-05-24T16:39:14Z</time>
      </trkpt>
      <trkpt lat="47.31842" lon="5.01288">
        <ele>237.10229492188</ele>
        <time>2012-05-24T16:39:16Z</time>
      </trkpt>
      <trkpt lat="47.31833" lon="5.01307">
        <ele>237.10229492188</ele>
        <time>2012-05-24T16:39:19Z</time>
      </trkpt>
      <trkpt lat="47.31829" lon="5.01335">
        <ele>236.62170410156</ele>
        <time>2012-05-24T16:39:23Z</time>
      </trkpt>
      <trkpt lat="47.31829" lon="5.01365">
        <ele>235.66027832031</ele>
        <time>2012-05-24T16:39:27Z</time>
      </trkpt>
      <trkpt lat="47.31831" lon="5.01401">
        <ele>236.14099121094</ele>
        <time>2012-05-24T16:39:32Z</time>
      </trkpt>
      <trkpt lat="47.31831" lon="5.01408">
        <ele>236.14099121094</ele>
        <time>2012-05-24T16:39:33Z</time>
      </trkpt>
      <trkpt lat="47.31831" lon="5.01442">
        <ele>237.10229492188</ele>
        <time>2012-05-24T16:39:38Z</time>
      </trkpt>
      <trkpt lat="47.31831" lon="5.0147">
        <ele>236.62170410156</ele>
        <time>2012-05-24T16:39:42Z</time>
      </trkpt>
      <trkpt lat="47.31831" lon="5.01492">
        <ele>235.66027832031</ele>
        <time>2012-05-24T16:39:45Z</time>
      </trkpt>
      <trkpt lat="47.31833" lon="5.01519">
        <ele>235.66027832031</ele>
        <time>2012-05-24T16:39:49Z</time>
      </trkpt>
      <trkpt lat="47.31835" lon="5.01543">
        <ele>235.66027832031</ele>
        <time>2012-05-24T16:39:52Z</time>
      </trkpt>
      <trkpt lat="47.31844" lon="5.01582">
        <ele>235.66027832031</ele>
        <time>2012-05-24T16:39:57Z</time>
      </trkpt>
      <trkpt lat="47.31846" lon="5.0159">
        <ele>235.66027832031</ele>
        <time>2012-05-24T16:39:58Z</time>
      </trkpt>
      <trkpt lat="47.31852" lon="5.01637">
        <ele>237.58288574219</ele>
        <time>2012-05-24T16:40:04Z</time>
      </trkpt>
      <trkpt lat="47.31852" lon="5.0167">
        <ele>238.06359863281</ele>
        <time>2012-05-24T16:40:08Z</time>
      </trkpt>
      <trkpt lat="47.3185" lon="5.017">
        <ele>238.06359863281</ele>
        <time>2012-05-24T16:40:12Z</time>
      </trkpt>
      <trkpt lat="47.31859" lon="5.01768">
        <ele>237.58288574219</ele>
        <time>2012-05-24T16:40:20Z</time>
      </trkpt>
      <trkpt lat="47.31865" lon="5.01786">
        <ele>237.58288574219</ele>
        <time>2012-05-24T16:40:22Z</time>
      </trkpt>
      <trkpt lat="47.31876" lon="5.01822">
        <ele>238.06359863281</ele>
        <time>2012-05-24T16:40:27Z</time>
      </trkpt>
      <trkpt lat="47.31895" lon="5.01876">
        <ele>239.50549316406</ele>
        <time>2012-05-24T16:40:36Z</time>
      </trkpt>
      <trkpt lat="47.31902" lon="5.01886">
        <ele>239.98620605469</ele>
        <time>2012-05-24T16:40:38Z</time>
      </trkpt>
      <trkpt lat="47.31906" lon="5.01901">
        <ele>241.90893554688</ele>
        <time>2012-05-24T16:40:41Z</time>
      </trkpt>
      <trkpt lat="47.31912" lon="5.01921">
        <ele>242.87023925781</ele>
        <time>2012-05-24T16:40:44Z</time>
      </trkpt>
      <trkpt lat="47.31921" lon="5.01944">
        <ele>244.31225585938</ele>
        <time>2012-05-24T16:40:48Z</time>
      </trkpt>
      <trkpt lat="47.31923" lon="5.01981">
        <ele>244.31225585938</ele>
        <time>2012-05-24T16:40:54Z</time>
      </trkpt>
      <trkpt lat="47.31919" lon="5.02064">
        <ele>242.87023925781</ele>
        <time>2012-05-24T16:41:06Z</time>
      </trkpt>
      <trkpt lat="47.31917" lon="5.02092">
        <ele>242.87023925781</ele>
        <time>2012-05-24T16:41:10Z</time>
      </trkpt>
      <trkpt lat="47.31912" lon="5.02127">
        <ele>242.3896484375</ele>
        <time>2012-05-24T16:41:15Z</time>
      </trkpt>
      <trkpt lat="47.3191" lon="5.0214">
        <ele>241.42822265625</ele>
        <time>2012-05-24T16:41:17Z</time>
      </trkpt>
      <trkpt lat="47.3191" lon="5.02195">
        <ele>242.87023925781</ele>
        <time>2012-05-24T16:41:27Z</time>
      </trkpt>
      <trkpt lat="47.31908" lon="5.02223">
        <ele>239.02490234375</ele>
        <time>2012-05-24T16:41:38Z</time>
      </trkpt>
      <trkpt lat="47.31908" lon="5.02228">
        <ele>238.54431152344</ele>
        <time>2012-05-24T16:41:40Z</time>
      </trkpt>
      <trkpt lat="47.31906" lon="5.02264">
        <ele>236.62170410156</ele>
        <time>2012-05-24T16:41:47Z</time>
      </trkpt>
      <trkpt lat="47.31899" lon="5.0229">
        <ele>235.1796875</ele>
        <time>2012-05-24T16:41:51Z</time>
      </trkpt>
      <trkpt lat="47.31895" lon="5.02331">
        <ele>227.48913574219</ele>
        <time>2012-05-24T16:41:59Z</time>
      </trkpt>
      <trkpt lat="47.31895" lon="5.02337">
        <ele>226.04711914062</ele>
        <time>2012-05-24T16:42:00Z</time>
      </trkpt>
      <trkpt lat="47.31884" lon="5.0238">
        <ele>215.47265625</ele>
        <time>2012-05-24T16:42:07Z</time>
      </trkpt>
      <trkpt lat="47.31876" lon="5.02423">
        <ele>206.82067871094</ele>
        <time>2012-05-24T16:42:14Z</time>
      </trkpt>
      <trkpt lat="47.31872" lon="5.02472">
        <ele>196.24633789062</ele>
        <time>2012-05-24T16:42:23Z</time>
      </trkpt>
      <trkpt lat="47.31874" lon="5.02496">
        <ele>191.92028808594</ele>
        <time>2012-05-24T16:42:27Z</time>
      </trkpt>
      <trkpt lat="47.31876" lon="5.02515">
        <ele>190.47839355469</ele>
        <time>2012-05-24T16:42:30Z</time>
      </trkpt>
      <trkpt lat="47.31878" lon="5.02528">
        <ele>189.51696777344</ele>
        <time>2012-05-24T16:42:32Z</time>
      </trkpt>
      <trkpt lat="47.31876" lon="5.02569">
        <ele>187.11376953125</ele>
        <time>2012-05-24T16:42:38Z</time>
      </trkpt>
      <trkpt lat="47.31876" lon="5.02582">
        <ele>185.67175292969</ele>
        <time>2012-05-24T16:42:40Z</time>
      </trkpt>
      <trkpt lat="47.31876" lon="5.02592">
        <ele>183.7490234375</ele>
        <time>2012-05-24T16:42:42Z</time>
      </trkpt>
      <trkpt lat="47.31878" lon="5.02637">
        <ele>181.82641601562</ele>
        <time>2012-05-24T16:42:50Z</time>
      </trkpt>
      <trkpt lat="47.31878" lon="5.02676">
        <ele>186.15246582031</ele>
        <time>2012-05-24T16:42:56Z</time>
      </trkpt>
      <trkpt lat="47.31878" lon="5.02697">
        <ele>189.03637695312</ele>
        <time>2012-05-24T16:42:59Z</time>
      </trkpt>
      <trkpt lat="47.31876" lon="5.02723">
        <ele>192.40112304688</ele>
        <time>2012-05-24T16:43:03Z</time>
      </trkpt>
      <trkpt lat="47.31872" lon="5.02749">
        <ele>198.1689453125</ele>
        <time>2012-05-24T16:43:07Z</time>
      </trkpt>
      <trkpt lat="47.31867" lon="5.02792">
        <ele>209.70483398438</ele>
        <time>2012-05-24T16:43:15Z</time>
      </trkpt>
      <trkpt lat="47.31865" lon="5.02815">
        <ele>214.99194335938</ele>
        <time>2012-05-24T16:43:20Z</time>
      </trkpt>
      <trkpt lat="47.31872" lon="5.02835">
        <ele>219.31799316406</ele>
        <time>2012-05-24T16:43:24Z</time>
      </trkpt>
      <trkpt lat="47.31867" lon="5.0285">
        <ele>225.0859375</ele>
        <time>2012-05-24T16:43:32Z</time>
      </trkpt>
      <trkpt lat="47.31867" lon="5.02852">
        <ele>227.48913574219</ele>
        <time>2012-05-24T16:44:28Z</time>
      </trkpt>
      <trkpt lat="47.31867" lon="5.02858">
        <ele>227.48913574219</ele>
        <time>2012-05-24T16:46:22Z</time>
      </trkpt>
      <trkpt lat="47.31859" lon="5.02893">
        <ele>224.60522460938</ele>
        <time>2012-05-24T16:46:30Z</time>
      </trkpt>
      <trkpt lat="47.31854" lon="5.02906">
        <ele>223.64379882812</ele>
        <time>2012-05-24T16:46:33Z</time>
      </trkpt>
      <trkpt lat="47.3185" lon="5.02934">
        <ele>226.04711914062</ele>
        <time>2012-05-24T16:46:37Z</time>
      </trkpt>
      <trkpt lat="47.31831" lon="5.02996">
        <ele>231.81494140625</ele>
        <time>2012-05-24T16:46:47Z</time>
      </trkpt>
      <trkpt lat="47.31816" lon="5.03034">
        <ele>233.73767089844</ele>
        <time>2012-05-24T16:46:56Z</time>
      </trkpt>
      <trkpt lat="47.31801" lon="5.03073">
        <ele>231.33435058594</ele>
        <time>2012-05-24T16:47:07Z</time>
      </trkpt>
      <trkpt lat="47.31799" lon="5.03079">
        <ele>227.48913574219</ele>
        <time>2012-05-24T16:47:17Z</time>
      </trkpt>
      <trkpt lat="47.3179" lon="5.03105">
        <ele>227.48913574219</ele>
        <time>2012-05-24T16:47:30Z</time>
      </trkpt>
      <trkpt lat="47.31784" lon="5.03124">
        <ele>228.93115234375</ele>
        <time>2012-05-24T16:47:34Z</time>
      </trkpt>
      <trkpt lat="47.31773" lon="5.03176">
        <ele>232.29577636719</ele>
        <time>2012-05-24T16:47:44Z</time>
      </trkpt>
      <trkpt lat="47.31777" lon="5.03182">
        <ele>232.29577636719</ele>
        <time>2012-05-24T16:47:53Z</time>
      </trkpt>
      <trkpt lat="47.31777" lon="5.03187">
        <ele>232.29577636719</ele>
        <time>2012-05-24T16:48:44Z</time>
      </trkpt>
      <trkpt lat="47.31797" lon="5.03223">
        <ele>231.81494140625</ele>
        <time>2012-05-24T16:48:52Z</time>
      </trkpt>
      <trkpt lat="47.31822" lon="5.03255">
        <ele>235.1796875</ele>
        <time>2012-05-24T16:48:58Z</time>
      </trkpt>
      <trkpt lat="47.31846" lon="5.03288">
        <ele>239.50549316406</ele>
        <time>2012-05-24T16:49:03Z</time>
      </trkpt>
      <trkpt lat="47.31859" lon="5.03309">
        <ele>241.42822265625</ele>
        <time>2012-05-24T16:49:06Z</time>
      </trkpt>
      <trkpt lat="47.31872" lon="5.03341">
        <ele>242.3896484375</ele>
        <time>2012-05-24T16:49:11Z</time>
      </trkpt>
      <trkpt lat="47.31878" lon="5.03363">
        <ele>241.42822265625</ele>
        <time>2012-05-24T16:49:15Z</time>
      </trkpt>
      <trkpt lat="47.31895" lon="5.03408">
        <ele>242.87023925781</ele>
        <time>2012-05-24T16:49:25Z</time>
      </trkpt>
      <trkpt lat="47.31897" lon="5.03431">
        <ele>247.19604492188</ele>
        <time>2012-05-24T16:49:32Z</time>
      </trkpt>
      <trkpt lat="47.31906" lon="5.03461">
        <ele>247.19604492188</ele>
        <time>2012-05-24T16:49:39Z</time>
      </trkpt>
      <trkpt lat="47.31912" lon="5.03487">
        <ele>247.19604492188</ele>
        <time>2012-05-24T16:49:44Z</time>
      </trkpt>
      <trkpt lat="47.31884" lon="5.03526">
        <ele>247.6767578125</ele>
        <time>2012-05-24T16:49:54Z</time>
      </trkpt>
      <trkpt lat="47.31887" lon="5.03547">
        <ele>249.59948730469</ele>
        <time>2012-05-24T16:50:01Z</time>
      </trkpt>
      <trkpt lat="47.31887" lon="5.03549">
        <ele>249.59948730469</ele>
        <time>2012-05-24T16:50:02Z</time>
      </trkpt>
      <trkpt lat="47.3188" lon="5.03575">
        <ele>250.08020019531</ele>
        <time>2012-05-24T16:50:08Z</time>
      </trkpt>
      <trkpt lat="47.31869" lon="5.03609">
        <ele>245.75415039062</ele>
        <time>2012-05-24T16:50:15Z</time>
      </trkpt>
      <trkpt lat="47.31876" lon="5.03624">
        <ele>244.79284667969</ele>
        <time>2012-05-24T16:50:18Z</time>
      </trkpt>
      <trkpt lat="47.31895" lon="5.03657">
        <ele>241.90893554688</ele>
        <time>2012-05-24T16:50:25Z</time>
      </trkpt>
      <trkpt lat="47.31904" lon="5.03672">
        <ele>241.90893554688</ele>
        <time>2012-05-24T16:50:28Z</time>
      </trkpt>
      <trkpt lat="47.3193" lon="5.03715">
        <ele>244.31225585938</ele>
        <time>2012-05-24T16:50:40Z</time>
      </trkpt>
      <trkpt lat="47.31925" lon="5.03725">
        <ele>244.79284667969</ele>
        <time>2012-05-24T16:50:45Z</time>
      </trkpt>
      <trkpt lat="47.31917" lon="5.03738">
        <ele>240.46704101562</ele>
        <time>2012-05-24T16:50:55Z</time>
      </trkpt>
      <trkpt lat="47.31919" lon="5.03757">
        <ele>240.46704101562</ele>
        <time>2012-05-24T16:50:59Z</time>
      </trkpt>
      <trkpt lat="47.31945" lon="5.03805">
        <ele>239.02490234375</ele>
        <time>2012-05-24T16:51:11Z</time>
      </trkpt>
      <trkpt lat="47.3197" lon="5.03841">
        <ele>238.54431152344</ele>
        <time>2012-05-24T16:51:21Z</time>
      </trkpt>
      <trkpt lat="47.31981" lon="5.03852">
        <ele>237.58288574219</ele>
        <time>2012-05-24T16:51:25Z</time>
      </trkpt>
      <trkpt lat="47.32005" lon="5.03882">
        <ele>239.50549316406</ele>
        <time>2012-05-24T16:51:35Z</time>
      </trkpt>
      <trkpt lat="47.32018" lon="5.03886">
        <ele>242.87023925781</ele>
        <time>2012-05-24T16:51:40Z</time>
      </trkpt>
      <trkpt lat="47.32048" lon="5.03903">
        <ele>245.75415039062</ele>
        <time>2012-05-24T16:51:49Z</time>
      </trkpt>
      <trkpt lat="47.32086" lon="5.03929">
        <ele>251.04138183594</ele>
        <time>2012-05-24T16:52:00Z</time>
      </trkpt>
      <trkpt lat="47.32114" lon="5.03951">
        <ele>254.88659667969</ele>
        <time>2012-05-24T16:52:09Z</time>
      </trkpt>
      <trkpt lat="47.32148" lon="5.03959">
        <ele>258.73193359375</ele>
        <time>2012-05-24T16:52:18Z</time>
      </trkpt>
      <trkpt lat="47.32166" lon="5.0397">
        <ele>260.65454101562</ele>
        <time>2012-05-24T16:52:24Z</time>
      </trkpt>
      <trkpt lat="47.32178" lon="5.03978">
        <ele>265.94189453125</ele>
        <time>2012-05-24T16:52:30Z</time>
      </trkpt>
      <trkpt lat="47.32206" lon="5.04002">
        <ele>274.59375</ele>
        <time>2012-05-24T16:52:40Z</time>
      </trkpt>
      <trkpt lat="47.32206" lon="5.04032">
        <ele>276.03564453125</ele>
        <time>2012-05-24T16:52:46Z</time>
      </trkpt>
      <trkpt lat="47.32206" lon="5.04039">
        <ele>276.51635742188</ele>
        <time>2012-05-24T16:52:47Z</time>
      </trkpt>
      <trkpt lat="47.32206" lon="5.0409">
        <ele>276.9970703125</ele>
        <time>2012-05-24T16:52:55Z</time>
      </trkpt>
      <trkpt lat="47.32236" lon="5.04109">
        <ele>289.494140625</ele>
        <time>2012-05-24T16:53:06Z</time>
      </trkpt>
      <trkpt lat="47.32269" lon="5.04116">
        <ele>293.82006835938</ele>
        <time>2012-05-24T16:53:15Z</time>
      </trkpt>
      <trkpt lat="47.32279" lon="5.0412">
        <ele>295.26196289062</ele>
        <time>2012-05-24T16:53:17Z</time>
      </trkpt>
      <trkpt lat="47.32296" lon="5.04131">
        <ele>296.7041015625</ele>
        <time>2012-05-24T16:53:21Z</time>
      </trkpt>
      <trkpt lat="47.32307" lon="5.04139">
        <ele>297.18469238281</ele>
        <time>2012-05-24T16:53:24Z</time>
      </trkpt>
      <trkpt lat="47.32329" lon="5.04163">
        <ele>302.47192382812</ele>
        <time>2012-05-24T16:53:30Z</time>
      </trkpt>
      <trkpt lat="47.32359" lon="5.04182">
        <ele>301.02990722656</ele>
        <time>2012-05-24T16:53:37Z</time>
      </trkpt>
      <trkpt lat="47.32389" lon="5.04204">
        <ele>300.54931640625</ele>
        <time>2012-05-24T16:53:44Z</time>
      </trkpt>
      <trkpt lat="47.32412" lon="5.04219">
        <ele>301.51062011719</ele>
        <time>2012-05-24T16:53:50Z</time>
      </trkpt>
      <trkpt lat="47.3244" lon="5.04232">
        <ele>297.66540527344</ele>
        <time>2012-05-24T16:53:57Z</time>
      </trkpt>
      <trkpt lat="47.3244" lon="5.04249">
        <ele>295.26196289062</ele>
        <time>2012-05-24T16:54:03Z</time>
      </trkpt>
      <trkpt lat="47.32436" lon="5.0427">
        <ele>294.30078125</ele>
        <time>2012-05-24T16:54:07Z</time>
      </trkpt>
      <trkpt lat="47.32434" lon="5.04283">
        <ele>293.82006835938</ele>
        <time>2012-05-24T16:54:09Z</time>
      </trkpt>
      <trkpt lat="47.32421" lon="5.04322">
        <ele>290.93615722656</ele>
        <time>2012-05-24T16:54:15Z</time>
      </trkpt>
      <trkpt lat="47.32412" lon="5.04378">
        <ele>287.57141113281</ele>
        <time>2012-05-24T16:54:24Z</time>
      </trkpt>
      <trkpt lat="47.32414" lon="5.0439">
        <ele>286.12951660156</ele>
        <time>2012-05-24T16:54:27Z</time>
      </trkpt>
      <trkpt lat="47.32417" lon="5.04401">
        <ele>282.76501464844</ele>
        <time>2012-05-24T16:54:30Z</time>
      </trkpt>
      <trkpt lat="47.32412" lon="5.04425">
        <ele>273.63244628906</ele>
        <time>2012-05-24T16:54:37Z</time>
      </trkpt>
      <trkpt lat="47.32412" lon="5.04429">
        <ele>271.22912597656</ele>
        <time>2012-05-24T16:54:39Z</time>
      </trkpt>
      <trkpt lat="47.32408" lon="5.04472">
        <ele>261.61596679688</ele>
        <time>2012-05-24T16:54:53Z</time>
      </trkpt>
      <trkpt lat="47.32404" lon="5.04511">
        <ele>252.96398925781</ele>
        <time>2012-05-24T16:55:02Z</time>
      </trkpt>
      <trkpt lat="47.32404" lon="5.04513">
        <ele>252.00280761719</ele>
        <time>2012-05-24T16:55:03Z</time>
      </trkpt>
      <trkpt lat="47.32397" lon="5.04564">
        <ele>242.87023925781</ele>
        <time>2012-05-24T16:55:13Z</time>
      </trkpt>
      <trkpt lat="47.32397" lon="5.04569">
        <ele>242.87023925781</ele>
        <time>2012-05-24T16:55:14Z</time>
      </trkpt>
      <trkpt lat="47.32438" lon="5.04575">
        <ele>248.15759277344</ele>
        <time>2012-05-24T16:55:24Z</time>
      </trkpt>
      <trkpt lat="47.32479" lon="5.04577">
        <ele>253.92541503906</ele>
        <time>2012-05-24T16:55:36Z</time>
      </trkpt>
      <trkpt lat="47.32481" lon="5.04575">
        <ele>256.32873535156</ele>
        <time>2012-05-24T16:55:39Z</time>
      </trkpt>
      <trkpt lat="47.32494" lon="5.04573">
        <ele>263.53857421875</ele>
        <time>2012-05-24T16:55:49Z</time>
      </trkpt>
      <trkpt lat="47.32498" lon="5.04592">
        <ele>271.70971679688</ele>
        <time>2012-05-24T16:56:24Z</time>
      </trkpt>
    </trkseg>
  </trk>
</gpx>